<?xml version="1.0" encoding="UTF-8" standalone="no" ?>
<gpx xmlns="http://www.topografix.com/GPX/1/1" xmlns:xsi="http://www.w3.org/2001/XMLSchema-instance" xsi:schemaLocation="http://www.topografix.com/GPX/1/1 http://www.topografix.com/GPX/1/1/gpx.xsd" version="1.1" creator="VisuGPX - https://www.visugpx.com">
  <metadata>
    <name>Plan de la Tour </name>
    <desc><![CDATA[Plan de la tour au départ de Saint Pons les Mures retour par Grimaud.]]></desc>
  </metadata>
  <trk>
    <name><![CDATA[ACTIVE LOG- 05 AOU 2011 10-09-MNT]]></name>
    <trkseg>
      <trkpt lat="43.28183" lon="6.58689">
        <ele>3.32375</ele>
        <time>2011-08-05T08:09:05Z</time>
      </trkpt>
      <trkpt lat="43.28198" lon="6.58633">
        <ele>5.098594</ele>
        <time>2011-08-05T08:09:24Z</time>
      </trkpt>
      <trkpt lat="43.28205" lon="6.58578">
        <ele>5.6975</ele>
        <time>2011-08-05T08:09:41Z</time>
      </trkpt>
      <trkpt lat="43.28188" lon="6.58524">
        <ele>5.675</ele>
        <time>2011-08-05T08:09:54Z</time>
      </trkpt>
      <trkpt lat="43.28184" lon="6.58455">
        <ele>6.1225</ele>
        <time>2011-08-05T08:10:09Z</time>
      </trkpt>
      <trkpt lat="43.28159" lon="6.58388">
        <ele>5.515</ele>
        <time>2011-08-05T08:10:23Z</time>
      </trkpt>
      <trkpt lat="43.28144" lon="6.58326">
        <ele>5.613937</ele>
        <time>2011-08-05T08:10:37Z</time>
      </trkpt>
      <trkpt lat="43.28115" lon="6.58259">
        <ele>5.415</ele>
        <time>2011-08-05T08:10:54Z</time>
      </trkpt>
      <trkpt lat="43.281" lon="6.58192">
        <ele>5.035</ele>
        <time>2011-08-05T08:11:11Z</time>
      </trkpt>
      <trkpt lat="43.28086" lon="6.5813">
        <ele>5.453031</ele>
        <time>2011-08-05T08:11:27Z</time>
      </trkpt>
      <trkpt lat="43.28066" lon="6.58065">
        <ele>5.759219</ele>
        <time>2011-08-05T08:11:41Z</time>
      </trkpt>
      <trkpt lat="43.28042" lon="6.58">
        <ele>6.7425</ele>
        <time>2011-08-05T08:11:53Z</time>
      </trkpt>
      <trkpt lat="43.2802" lon="6.57944">
        <ele>7</ele>
        <time>2011-08-05T08:12:04Z</time>
      </trkpt>
      <trkpt lat="43.28044" lon="6.57914">
        <ele>7.06545</ele>
        <time>2011-08-05T08:12:30Z</time>
      </trkpt>
      <trkpt lat="43.28069" lon="6.57865">
        <ele>7</ele>
        <time>2011-08-05T08:12:51Z</time>
      </trkpt>
      <trkpt lat="43.28103" lon="6.57822">
        <ele>7.69875</ele>
        <time>2011-08-05T08:13:09Z</time>
      </trkpt>
      <trkpt lat="43.28135" lon="6.57775">
        <ele>9.515</ele>
        <time>2011-08-05T08:13:26Z</time>
      </trkpt>
      <trkpt lat="43.28178" lon="6.57745">
        <ele>10.84875</ele>
        <time>2011-08-05T08:13:42Z</time>
      </trkpt>
      <trkpt lat="43.28227" lon="6.57741">
        <ele>10.538313</ele>
        <time>2011-08-05T08:13:58Z</time>
      </trkpt>
      <trkpt lat="43.28261" lon="6.57696">
        <ele>10.6005</ele>
        <time>2011-08-05T08:14:11Z</time>
      </trkpt>
      <trkpt lat="43.28295" lon="6.57651">
        <ele>11.5728</ele>
        <time>2011-08-05T08:14:25Z</time>
      </trkpt>
      <trkpt lat="43.2834" lon="6.57627">
        <ele>11.685</ele>
        <time>2011-08-05T08:14:36Z</time>
      </trkpt>
      <trkpt lat="43.28394" lon="6.57621">
        <ele>12.13125</ele>
        <time>2011-08-05T08:14:45Z</time>
      </trkpt>
      <trkpt lat="43.28443" lon="6.57624">
        <ele>11.32</ele>
        <time>2011-08-05T08:14:55Z</time>
      </trkpt>
      <trkpt lat="43.28491" lon="6.57624">
        <ele>11.55</ele>
        <time>2011-08-05T08:15:09Z</time>
      </trkpt>
      <trkpt lat="43.28537" lon="6.57616">
        <ele>12.213125</ele>
        <time>2011-08-05T08:15:24Z</time>
      </trkpt>
      <trkpt lat="43.28581" lon="6.57594">
        <ele>12.022356</ele>
        <time>2011-08-05T08:15:39Z</time>
      </trkpt>
      <trkpt lat="43.28617" lon="6.57559">
        <ele>13.870175</ele>
        <time>2011-08-05T08:15:52Z</time>
      </trkpt>
      <trkpt lat="43.28654" lon="6.57519">
        <ele>15.184281</ele>
        <time>2011-08-05T08:16:05Z</time>
      </trkpt>
      <trkpt lat="43.28693" lon="6.5748">
        <ele>16.12739</ele>
        <time>2011-08-05T08:16:19Z</time>
      </trkpt>
      <trkpt lat="43.28732" lon="6.57467">
        <ele>17.695328</ele>
        <time>2011-08-05T08:16:37Z</time>
      </trkpt>
      <trkpt lat="43.28779" lon="6.57469">
        <ele>21.143749</ele>
        <time>2011-08-05T08:16:59Z</time>
      </trkpt>
      <trkpt lat="43.28824" lon="6.57461">
        <ele>23.185844</ele>
        <time>2011-08-05T08:17:18Z</time>
      </trkpt>
      <trkpt lat="43.28872" lon="6.57462">
        <ele>26.168282</ele>
        <time>2011-08-05T08:17:39Z</time>
      </trkpt>
      <trkpt lat="43.2891" lon="6.57431">
        <ele>25.614374</ele>
        <time>2011-08-05T08:17:56Z</time>
      </trkpt>
      <trkpt lat="43.28957" lon="6.57418">
        <ele>29.497463</ele>
        <time>2011-08-05T08:18:17Z</time>
      </trkpt>
      <trkpt lat="43.29004" lon="6.5741">
        <ele>30.977499</ele>
        <time>2011-08-05T08:18:36Z</time>
      </trkpt>
      <trkpt lat="43.29046" lon="6.57385">
        <ele>30.816376</ele>
        <time>2011-08-05T08:18:54Z</time>
      </trkpt>
      <trkpt lat="43.29092" lon="6.57395">
        <ele>33.832283</ele>
        <time>2011-08-05T08:19:16Z</time>
      </trkpt>
      <trkpt lat="43.29137" lon="6.57406">
        <ele>35.279953</ele>
        <time>2011-08-05T08:19:40Z</time>
      </trkpt>
      <trkpt lat="43.29176" lon="6.57443">
        <ele>38.072525</ele>
        <time>2011-08-05T08:19:58Z</time>
      </trkpt>
      <trkpt lat="43.2922" lon="6.57454">
        <ele>37.575287</ele>
        <time>2011-08-05T08:20:12Z</time>
      </trkpt>
      <trkpt lat="43.29267" lon="6.57462">
        <ele>39.626617</ele>
        <time>2011-08-05T08:20:31Z</time>
      </trkpt>
      <trkpt lat="43.29311" lon="6.57493">
        <ele>41</ele>
        <time>2011-08-05T08:20:53Z</time>
      </trkpt>
      <trkpt lat="43.29359" lon="6.57499">
        <ele>41.993526</ele>
        <time>2011-08-05T08:21:13Z</time>
      </trkpt>
      <trkpt lat="43.29406" lon="6.57507">
        <ele>45.617069</ele>
        <time>2011-08-05T08:21:36Z</time>
      </trkpt>
      <trkpt lat="43.29452" lon="6.57514">
        <ele>49.959999</ele>
        <time>2011-08-05T08:21:59Z</time>
      </trkpt>
      <trkpt lat="43.29493" lon="6.57484">
        <ele>52.476799</ele>
        <time>2011-08-05T08:22:23Z</time>
      </trkpt>
      <trkpt lat="43.29535" lon="6.57456">
        <ele>51.461288</ele>
        <time>2011-08-05T08:22:46Z</time>
      </trkpt>
      <trkpt lat="43.29578" lon="6.57453">
        <ele>53.964855</ele>
        <time>2011-08-05T08:23:05Z</time>
      </trkpt>
      <trkpt lat="43.2963" lon="6.57442">
        <ele>59.813126</ele>
        <time>2011-08-05T08:23:35Z</time>
      </trkpt>
      <trkpt lat="43.29677" lon="6.57436">
        <ele>66.92205</ele>
        <time>2011-08-05T08:24:32Z</time>
      </trkpt>
      <trkpt lat="43.29722" lon="6.57436">
        <ele>72.091087</ele>
        <time>2011-08-05T08:25:05Z</time>
      </trkpt>
      <trkpt lat="43.29765" lon="6.57421">
        <ele>73.318748</ele>
        <time>2011-08-05T08:25:28Z</time>
      </trkpt>
      <trkpt lat="43.29809" lon="6.57395">
        <ele>73.327499</ele>
        <time>2011-08-05T08:25:43Z</time>
      </trkpt>
      <trkpt lat="43.29849" lon="6.57363">
        <ele>73.254997</ele>
        <time>2011-08-05T08:25:58Z</time>
      </trkpt>
      <trkpt lat="43.29882" lon="6.5732">
        <ele>71.916473</ele>
        <time>2011-08-05T08:26:44Z</time>
      </trkpt>
      <trkpt lat="43.2992" lon="6.57283">
        <ele>75.287529</ele>
        <time>2011-08-05T08:27:03Z</time>
      </trkpt>
      <trkpt lat="43.29958" lon="6.57241">
        <ele>75.812149</ele>
        <time>2011-08-05T08:27:20Z</time>
      </trkpt>
      <trkpt lat="43.29997" lon="6.57211">
        <ele>76.530991</ele>
        <time>2011-08-05T08:27:39Z</time>
      </trkpt>
      <trkpt lat="43.3004" lon="6.57181">
        <ele>79.763123</ele>
        <time>2011-08-05T08:27:58Z</time>
      </trkpt>
      <trkpt lat="43.30068" lon="6.57137">
        <ele>78.791786</ele>
        <time>2011-08-05T08:28:23Z</time>
      </trkpt>
      <trkpt lat="43.30122" lon="6.57127">
        <ele>83.91053</ele>
        <time>2011-08-05T08:34:24Z</time>
      </trkpt>
      <trkpt lat="43.30176" lon="6.57121">
        <ele>87.062599</ele>
        <time>2011-08-05T08:36:00Z</time>
      </trkpt>
      <trkpt lat="43.30208" lon="6.57077">
        <ele>92.032501</ele>
        <time>2011-08-05T08:37:15Z</time>
      </trkpt>
      <trkpt lat="43.30202" lon="6.5703">
        <ele>106.1455</ele>
        <time>2011-08-05T08:39:17Z</time>
      </trkpt>
      <trkpt lat="43.30225" lon="6.56977">
        <ele>115.320251</ele>
        <time>2011-08-05T08:40:43Z</time>
      </trkpt>
      <trkpt lat="43.3025" lon="6.56928">
        <ele>122.11219</ele>
        <time>2011-08-05T08:42:08Z</time>
      </trkpt>
      <trkpt lat="43.30288" lon="6.5688">
        <ele>125.064713</ele>
        <time>2011-08-05T08:42:54Z</time>
      </trkpt>
      <trkpt lat="43.30314" lon="6.56832">
        <ele>127.808311</ele>
        <time>2011-08-05T08:43:26Z</time>
      </trkpt>
      <trkpt lat="43.30337" lon="6.56771">
        <ele>135.018845</ele>
        <time>2011-08-05T08:45:23Z</time>
      </trkpt>
      <trkpt lat="43.30354" lon="6.56713">
        <ele>142.926178</ele>
        <time>2011-08-05T08:46:40Z</time>
      </trkpt>
      <trkpt lat="43.30385" lon="6.56664">
        <ele>150.358154</ele>
        <time>2011-08-05T08:49:20Z</time>
      </trkpt>
      <trkpt lat="43.30395" lon="6.566">
        <ele>161.410126</ele>
        <time>2011-08-05T08:50:14Z</time>
      </trkpt>
      <trkpt lat="43.30373" lon="6.56553">
        <ele>169.614395</ele>
        <time>2011-08-05T08:51:29Z</time>
      </trkpt>
      <trkpt lat="43.30343" lon="6.56514">
        <ele>179.247147</ele>
        <time>2011-08-05T08:53:41Z</time>
      </trkpt>
      <trkpt lat="43.303" lon="6.56527">
        <ele>178.697495</ele>
        <time>2011-08-05T08:54:39Z</time>
      </trkpt>
      <trkpt lat="43.30258" lon="6.56544">
        <ele>178.752472</ele>
        <time>2011-08-05T08:55:04Z</time>
      </trkpt>
      <trkpt lat="43.3021" lon="6.56551">
        <ele>181.940598</ele>
        <time>2011-08-05T08:55:41Z</time>
      </trkpt>
      <trkpt lat="43.30186" lon="6.56513">
        <ele>188.353973</ele>
        <time>2011-08-05T08:56:18Z</time>
      </trkpt>
      <trkpt lat="43.30198" lon="6.56452">
        <ele>196.873215</ele>
        <time>2011-08-05T08:57:00Z</time>
      </trkpt>
      <trkpt lat="43.30221" lon="6.56405">
        <ele>203.210236</ele>
        <time>2011-08-05T08:58:28Z</time>
      </trkpt>
      <trkpt lat="43.30248" lon="6.56395">
        <ele>205.127502</ele>
        <time>2011-08-05T08:59:45Z</time>
      </trkpt>
      <trkpt lat="43.30267" lon="6.56341">
        <ele>207.163208</ele>
        <time>2011-08-05T09:00:00Z</time>
      </trkpt>
      <trkpt lat="43.30278" lon="6.56279">
        <ele>206.54982</ele>
        <time>2011-08-05T09:00:36Z</time>
      </trkpt>
      <trkpt lat="43.30292" lon="6.56216">
        <ele>205.535004</ele>
        <time>2011-08-05T09:00:54Z</time>
      </trkpt>
      <trkpt lat="43.30314" lon="6.56158">
        <ele>206.821045</ele>
        <time>2011-08-05T09:01:11Z</time>
      </trkpt>
      <trkpt lat="43.30332" lon="6.56098">
        <ele>204.839508</ele>
        <time>2011-08-05T09:01:44Z</time>
      </trkpt>
      <trkpt lat="43.30354" lon="6.56032">
        <ele>201.827896</ele>
        <time>2011-08-05T09:01:56Z</time>
      </trkpt>
      <trkpt lat="43.30375" lon="6.55972">
        <ele>194.508194</ele>
        <time>2011-08-05T09:02:06Z</time>
      </trkpt>
      <trkpt lat="43.30407" lon="6.55924">
        <ele>187.112091</ele>
        <time>2011-08-05T09:02:16Z</time>
      </trkpt>
      <trkpt lat="43.30449" lon="6.55897">
        <ele>183.668747</ele>
        <time>2011-08-05T09:02:59Z</time>
      </trkpt>
      <trkpt lat="43.30494" lon="6.5588">
        <ele>183.023331</ele>
        <time>2011-08-05T09:03:08Z</time>
      </trkpt>
      <trkpt lat="43.30539" lon="6.55864">
        <ele>180.440369</ele>
        <time>2011-08-05T09:03:21Z</time>
      </trkpt>
      <trkpt lat="43.30575" lon="6.55831">
        <ele>172.040298</ele>
        <time>2011-08-05T09:03:37Z</time>
      </trkpt>
      <trkpt lat="43.30588" lon="6.5577">
        <ele>168.823059</ele>
        <time>2011-08-05T09:03:48Z</time>
      </trkpt>
      <trkpt lat="43.30617" lon="6.55722">
        <ele>170.137497</ele>
        <time>2011-08-05T09:04:11Z</time>
      </trkpt>
      <trkpt lat="43.30654" lon="6.5569">
        <ele>175.445602</ele>
        <time>2011-08-05T09:04:31Z</time>
      </trkpt>
      <trkpt lat="43.30687" lon="6.55645">
        <ele>175.356384</ele>
        <time>2011-08-05T09:04:47Z</time>
      </trkpt>
      <trkpt lat="43.30718" lon="6.55595">
        <ele>174.228592</ele>
        <time>2011-08-05T09:05:06Z</time>
      </trkpt>
      <trkpt lat="43.30755" lon="6.55555">
        <ele>176.082703</ele>
        <time>2011-08-05T09:05:24Z</time>
      </trkpt>
      <trkpt lat="43.30799" lon="6.55528">
        <ele>180.582504</ele>
        <time>2011-08-05T09:05:46Z</time>
      </trkpt>
      <trkpt lat="43.30838" lon="6.5549">
        <ele>182.104187</ele>
        <time>2011-08-05T09:06:05Z</time>
      </trkpt>
      <trkpt lat="43.30877" lon="6.55459">
        <ele>182.987122</ele>
        <time>2011-08-05T09:06:27Z</time>
      </trkpt>
      <trkpt lat="43.30919" lon="6.55423">
        <ele>182.548752</ele>
        <time>2011-08-05T09:06:51Z</time>
      </trkpt>
      <trkpt lat="43.30943" lon="6.55366">
        <ele>179.389999</ele>
        <time>2011-08-05T09:07:05Z</time>
      </trkpt>
      <trkpt lat="43.30964" lon="6.55306">
        <ele>176.199631</ele>
        <time>2011-08-05T09:07:14Z</time>
      </trkpt>
      <trkpt lat="43.30981" lon="6.55246">
        <ele>176.389999</ele>
        <time>2011-08-05T09:07:26Z</time>
      </trkpt>
      <trkpt lat="43.30998" lon="6.55189">
        <ele>177.792496</ele>
        <time>2011-08-05T09:07:49Z</time>
      </trkpt>
      <trkpt lat="43.31016" lon="6.55133">
        <ele>179.287491</ele>
        <time>2011-08-05T09:08:10Z</time>
      </trkpt>
      <trkpt lat="43.31045" lon="6.55084">
        <ele>181.606445</ele>
        <time>2011-08-05T09:08:30Z</time>
      </trkpt>
      <trkpt lat="43.31077" lon="6.55039">
        <ele>183.765808</ele>
        <time>2011-08-05T09:08:52Z</time>
      </trkpt>
      <trkpt lat="43.3111" lon="6.54999">
        <ele>185.465454</ele>
        <time>2011-08-05T09:09:46Z</time>
      </trkpt>
      <trkpt lat="43.31099" lon="6.55008">
        <ele>184.831268</ele>
        <time>2011-08-05T09:10:45Z</time>
      </trkpt>
      <trkpt lat="43.31105" lon="6.5503">
        <ele>185.43251</ele>
        <time>2011-08-05T09:11:02Z</time>
      </trkpt>
      <trkpt lat="43.31148" lon="6.54999">
        <ele>185.022049</ele>
        <time>2011-08-05T09:11:14Z</time>
      </trkpt>
      <trkpt lat="43.3119" lon="6.54967">
        <ele>181.694061</ele>
        <time>2011-08-05T09:11:23Z</time>
      </trkpt>
      <trkpt lat="43.31232" lon="6.54936">
        <ele>177.84581</ele>
        <time>2011-08-05T09:11:30Z</time>
      </trkpt>
      <trkpt lat="43.31271" lon="6.54901">
        <ele>173.32103</ele>
        <time>2011-08-05T09:11:36Z</time>
      </trkpt>
      <trkpt lat="43.31311" lon="6.54868">
        <ele>171.118759</ele>
        <time>2011-08-05T09:11:43Z</time>
      </trkpt>
      <trkpt lat="43.31328" lon="6.54917">
        <ele>168.031006</ele>
        <time>2011-08-05T09:11:55Z</time>
      </trkpt>
      <trkpt lat="43.3137" lon="6.54902">
        <ele>164.340393</ele>
        <time>2011-08-05T09:12:33Z</time>
      </trkpt>
      <trkpt lat="43.31415" lon="6.54885">
        <ele>161.634872</ele>
        <time>2011-08-05T09:12:43Z</time>
      </trkpt>
      <trkpt lat="43.3146" lon="6.54885">
        <ele>159.618439</ele>
        <time>2011-08-05T09:12:56Z</time>
      </trkpt>
      <trkpt lat="43.31508" lon="6.54892">
        <ele>158.483353</ele>
        <time>2011-08-05T09:13:10Z</time>
      </trkpt>
      <trkpt lat="43.31555" lon="6.54884">
        <ele>153.977493</ele>
        <time>2011-08-05T09:13:23Z</time>
      </trkpt>
      <trkpt lat="43.31601" lon="6.54886">
        <ele>149.873352</ele>
        <time>2011-08-05T09:13:38Z</time>
      </trkpt>
      <trkpt lat="43.31643" lon="6.54901">
        <ele>145.585999</ele>
        <time>2011-08-05T09:15:02Z</time>
      </trkpt>
      <trkpt lat="43.31685" lon="6.54892">
        <ele>139.095978</ele>
        <time>2011-08-05T09:15:33Z</time>
      </trkpt>
      <trkpt lat="43.31727" lon="6.54877">
        <ele>133.759186</ele>
        <time>2011-08-05T09:16:01Z</time>
      </trkpt>
      <trkpt lat="43.31772" lon="6.54864">
        <ele>128.151596</ele>
        <time>2011-08-05T09:16:08Z</time>
      </trkpt>
      <trkpt lat="43.31817" lon="6.54846">
        <ele>121.01503</ele>
        <time>2011-08-05T09:16:21Z</time>
      </trkpt>
      <trkpt lat="43.31863" lon="6.54824">
        <ele>114.460243</ele>
        <time>2011-08-05T09:16:30Z</time>
      </trkpt>
      <trkpt lat="43.31905" lon="6.54829">
        <ele>110.608971</ele>
        <time>2011-08-05T09:16:58Z</time>
      </trkpt>
      <trkpt lat="43.31949" lon="6.5482">
        <ele>105.886818</ele>
        <time>2011-08-05T09:17:20Z</time>
      </trkpt>
      <trkpt lat="43.31998" lon="6.54806">
        <ele>100.377296</ele>
        <time>2011-08-05T09:17:31Z</time>
      </trkpt>
      <trkpt lat="43.32043" lon="6.54789">
        <ele>95.600983</ele>
        <time>2011-08-05T09:17:45Z</time>
      </trkpt>
      <trkpt lat="43.32086" lon="6.54769">
        <ele>90.894745</ele>
        <time>2011-08-05T09:18:15Z</time>
      </trkpt>
      <trkpt lat="43.32129" lon="6.5476">
        <ele>85.89875</ele>
        <time>2011-08-05T09:18:52Z</time>
      </trkpt>
      <trkpt lat="43.32176" lon="6.54753">
        <ele>81.136246</ele>
        <time>2011-08-05T09:19:06Z</time>
      </trkpt>
      <trkpt lat="43.32227" lon="6.54752">
        <ele>77.244507</ele>
        <time>2011-08-05T09:19:15Z</time>
      </trkpt>
      <trkpt lat="43.3226" lon="6.5479">
        <ele>75.999466</ele>
        <time>2011-08-05T09:19:29Z</time>
      </trkpt>
      <trkpt lat="43.32294" lon="6.54842">
        <ele>75.748863</ele>
        <time>2011-08-05T09:19:59Z</time>
      </trkpt>
      <trkpt lat="43.32327" lon="6.54889">
        <ele>74.894936</ele>
        <time>2011-08-05T09:20:15Z</time>
      </trkpt>
      <trkpt lat="43.3236" lon="6.54932">
        <ele>75.681801</ele>
        <time>2011-08-05T09:20:33Z</time>
      </trkpt>
      <trkpt lat="43.32402" lon="6.54967">
        <ele>78.242935</ele>
        <time>2011-08-05T09:20:57Z</time>
      </trkpt>
      <trkpt lat="43.32444" lon="6.54989">
        <ele>80.99176</ele>
        <time>2011-08-05T09:21:19Z</time>
      </trkpt>
      <trkpt lat="43.32492" lon="6.54997">
        <ele>83.322128</ele>
        <time>2011-08-05T09:21:40Z</time>
      </trkpt>
      <trkpt lat="43.32537" lon="6.55014">
        <ele>82.83725</ele>
        <time>2011-08-05T09:22:14Z</time>
      </trkpt>
      <trkpt lat="43.32587" lon="6.55011">
        <ele>80.919716</ele>
        <time>2011-08-05T09:22:26Z</time>
      </trkpt>
      <trkpt lat="43.3263" lon="6.54986">
        <ele>78.575226</ele>
        <time>2011-08-05T09:22:36Z</time>
      </trkpt>
      <trkpt lat="43.32668" lon="6.54955">
        <ele>74.78331</ele>
        <time>2011-08-05T09:22:59Z</time>
      </trkpt>
      <trkpt lat="43.32702" lon="6.54908">
        <ele>71.139984</ele>
        <time>2011-08-05T09:23:12Z</time>
      </trkpt>
      <trkpt lat="43.32736" lon="6.54855">
        <ele>67.795822</ele>
        <time>2011-08-05T09:23:21Z</time>
      </trkpt>
      <trkpt lat="43.32773" lon="6.54803">
        <ele>64.397316</ele>
        <time>2011-08-05T09:23:28Z</time>
      </trkpt>
      <trkpt lat="43.32811" lon="6.54765">
        <ele>61.029999</ele>
        <time>2011-08-05T09:23:34Z</time>
      </trkpt>
      <trkpt lat="43.3285" lon="6.54737">
        <ele>58.536037</ele>
        <time>2011-08-05T09:23:51Z</time>
      </trkpt>
      <trkpt lat="43.32888" lon="6.54699">
        <ele>57.632851</ele>
        <time>2011-08-05T09:24:04Z</time>
      </trkpt>
      <trkpt lat="43.32921" lon="6.54654">
        <ele>57.407028</ele>
        <time>2011-08-05T09:24:16Z</time>
      </trkpt>
      <trkpt lat="43.32937" lon="6.54595">
        <ele>56.139404</ele>
        <time>2011-08-05T09:24:54Z</time>
      </trkpt>
      <trkpt lat="43.32922" lon="6.54532">
        <ele>56.467499</ele>
        <time>2011-08-05T09:25:04Z</time>
      </trkpt>
      <trkpt lat="43.32931" lon="6.54471">
        <ele>53.889275</ele>
        <time>2011-08-05T09:25:12Z</time>
      </trkpt>
      <trkpt lat="43.32971" lon="6.54436">
        <ele>52</ele>
        <time>2011-08-05T09:25:22Z</time>
      </trkpt>
      <trkpt lat="43.33013" lon="6.5441">
        <ele>52.879906</ele>
        <time>2011-08-05T09:25:37Z</time>
      </trkpt>
      <trkpt lat="43.33057" lon="6.54387">
        <ele>58.116734</ele>
        <time>2011-08-05T09:25:55Z</time>
      </trkpt>
      <trkpt lat="43.33104" lon="6.54378">
        <ele>62.257839</ele>
        <time>2011-08-05T09:26:13Z</time>
      </trkpt>
      <trkpt lat="43.33144" lon="6.54403">
        <ele>64.212341</ele>
        <time>2011-08-05T09:26:30Z</time>
      </trkpt>
      <trkpt lat="43.33172" lon="6.54392">
        <ele>66.698097</ele>
        <time>2011-08-05T09:26:54Z</time>
      </trkpt>
      <trkpt lat="43.33168" lon="6.54332">
        <ele>68.560539</ele>
        <time>2011-08-05T09:27:16Z</time>
      </trkpt>
      <trkpt lat="43.33171" lon="6.54266">
        <ele>71.217834</ele>
        <time>2011-08-05T09:27:38Z</time>
      </trkpt>
      <trkpt lat="43.33168" lon="6.54203">
        <ele>73.467163</ele>
        <time>2011-08-05T09:27:58Z</time>
      </trkpt>
      <trkpt lat="43.33153" lon="6.54143">
        <ele>73.941422</ele>
        <time>2011-08-05T09:28:12Z</time>
      </trkpt>
      <trkpt lat="43.33131" lon="6.54085">
        <ele>73.055649</ele>
        <time>2011-08-05T09:28:26Z</time>
      </trkpt>
      <trkpt lat="43.33127" lon="6.54021">
        <ele>73.666771</ele>
        <time>2011-08-05T09:28:42Z</time>
      </trkpt>
      <trkpt lat="43.33145" lon="6.53961">
        <ele>75.746246</ele>
        <time>2011-08-05T09:29:00Z</time>
      </trkpt>
      <trkpt lat="43.33145" lon="6.53898">
        <ele>76.349915</ele>
        <time>2011-08-05T09:29:19Z</time>
      </trkpt>
      <trkpt lat="43.33185" lon="6.53883">
        <ele>80.264397</ele>
        <time>2011-08-05T09:29:38Z</time>
      </trkpt>
      <trkpt lat="43.33219" lon="6.53844">
        <ele>84.669655</ele>
        <time>2011-08-05T09:30:00Z</time>
      </trkpt>
      <trkpt lat="43.3324" lon="6.53791">
        <ele>85.684067</ele>
        <time>2011-08-05T09:30:24Z</time>
      </trkpt>
      <trkpt lat="43.33284" lon="6.53769">
        <ele>88.114998</ele>
        <time>2011-08-05T09:31:15Z</time>
      </trkpt>
      <trkpt lat="43.33322" lon="6.53739">
        <ele>89.521912</ele>
        <time>2011-08-05T09:31:38Z</time>
      </trkpt>
      <trkpt lat="43.33361" lon="6.53707">
        <ele>91.035004</ele>
        <time>2011-08-05T09:32:01Z</time>
      </trkpt>
      <trkpt lat="43.33401" lon="6.53676">
        <ele>93.8675</ele>
        <time>2011-08-05T09:32:24Z</time>
      </trkpt>
      <trkpt lat="43.33446" lon="6.53669">
        <ele>96.657013</ele>
        <time>2011-08-05T09:34:14Z</time>
      </trkpt>
      <trkpt lat="43.33461" lon="6.53603">
        <ele>97.525002</ele>
        <time>2011-08-05T09:34:33Z</time>
      </trkpt>
      <trkpt lat="43.33477" lon="6.53541">
        <ele>98.402496</ele>
        <time>2011-08-05T09:35:50Z</time>
      </trkpt>
      <trkpt lat="43.33507" lon="6.5349">
        <ele>100.5</ele>
        <time>2011-08-05T09:36:11Z</time>
      </trkpt>
      <trkpt lat="43.33544" lon="6.53454">
        <ele>104.388412</ele>
        <time>2011-08-05T09:36:31Z</time>
      </trkpt>
      <trkpt lat="43.33552" lon="6.53409">
        <ele>105.128998</ele>
        <time>2011-08-05T09:36:49Z</time>
      </trkpt>
      <trkpt lat="43.33514" lon="6.53361">
        <ele>97.768242</ele>
        <time>2011-08-05T09:37:01Z</time>
      </trkpt>
      <trkpt lat="43.33507" lon="6.53304">
        <ele>95.962387</ele>
        <time>2011-08-05T09:37:15Z</time>
      </trkpt>
      <trkpt lat="43.33489" lon="6.53241">
        <ele>97.760513</ele>
        <time>2011-08-05T09:37:36Z</time>
      </trkpt>
      <trkpt lat="43.3348" lon="6.53182">
        <ele>100.080498</ele>
        <time>2011-08-05T09:37:52Z</time>
      </trkpt>
      <trkpt lat="43.33456" lon="6.53127">
        <ele>106.333862</ele>
        <time>2011-08-05T09:38:14Z</time>
      </trkpt>
      <trkpt lat="43.33433" lon="6.53072">
        <ele>112.715401</ele>
        <time>2011-08-05T09:38:43Z</time>
      </trkpt>
      <trkpt lat="43.33406" lon="6.53022">
        <ele>116.848434</ele>
        <time>2011-08-05T09:39:12Z</time>
      </trkpt>
      <trkpt lat="43.33375" lon="6.52974">
        <ele>120.293747</ele>
        <time>2011-08-05T09:39:43Z</time>
      </trkpt>
      <trkpt lat="43.33345" lon="6.52924">
        <ele>120.448715</ele>
        <time>2011-08-05T09:40:17Z</time>
      </trkpt>
      <trkpt lat="43.33311" lon="6.52875">
        <ele>117.096718</ele>
        <time>2011-08-05T09:40:27Z</time>
      </trkpt>
      <trkpt lat="43.333" lon="6.52819">
        <ele>115.370018</ele>
        <time>2011-08-05T09:40:44Z</time>
      </trkpt>
      <trkpt lat="43.33317" lon="6.5276">
        <ele>117.086571</ele>
        <time>2011-08-05T09:41:00Z</time>
      </trkpt>
      <trkpt lat="43.33342" lon="6.52708">
        <ele>118.515602</ele>
        <time>2011-08-05T09:41:15Z</time>
      </trkpt>
      <trkpt lat="43.33372" lon="6.52661">
        <ele>120.397514</ele>
        <time>2011-08-05T09:41:31Z</time>
      </trkpt>
      <trkpt lat="43.33395" lon="6.52609">
        <ele>122.245399</ele>
        <time>2011-08-05T09:41:42Z</time>
      </trkpt>
      <trkpt lat="43.33375" lon="6.52559">
        <ele>116.370094</ele>
        <time>2011-08-05T09:41:55Z</time>
      </trkpt>
      <trkpt lat="43.33407" lon="6.52516">
        <ele>118.88575</ele>
        <time>2011-08-05T09:42:10Z</time>
      </trkpt>
      <trkpt lat="43.3345" lon="6.52488">
        <ele>121.520172</ele>
        <time>2011-08-05T09:42:21Z</time>
      </trkpt>
      <trkpt lat="43.33424" lon="6.52465">
        <ele>117.775642</ele>
        <time>2011-08-05T09:42:38Z</time>
      </trkpt>
      <trkpt lat="43.33391" lon="6.52427">
        <ele>118.333199</ele>
        <time>2011-08-05T09:42:55Z</time>
      </trkpt>
      <trkpt lat="43.33386" lon="6.52366">
        <ele>120.247139</ele>
        <time>2011-08-05T09:43:12Z</time>
      </trkpt>
      <trkpt lat="43.334" lon="6.52303">
        <ele>123.977127</ele>
        <time>2011-08-05T09:43:25Z</time>
      </trkpt>
      <trkpt lat="43.33421" lon="6.52249">
        <ele>126.811249</ele>
        <time>2011-08-05T09:43:43Z</time>
      </trkpt>
      <trkpt lat="43.33446" lon="6.522">
        <ele>131.238068</ele>
        <time>2011-08-05T09:44:00Z</time>
      </trkpt>
      <trkpt lat="43.33457" lon="6.52139">
        <ele>130.622025</ele>
        <time>2011-08-05T09:44:17Z</time>
      </trkpt>
      <trkpt lat="43.33466" lon="6.52076">
        <ele>130.197998</ele>
        <time>2011-08-05T09:44:31Z</time>
      </trkpt>
      <trkpt lat="43.33467" lon="6.52009">
        <ele>129.93338</ele>
        <time>2011-08-05T09:44:43Z</time>
      </trkpt>
      <trkpt lat="43.33463" lon="6.51946">
        <ele>129.596054</ele>
        <time>2011-08-05T09:44:55Z</time>
      </trkpt>
      <trkpt lat="43.33447" lon="6.51898">
        <ele>128.508118</ele>
        <time>2011-08-05T09:45:12Z</time>
      </trkpt>
      <trkpt lat="43.33409" lon="6.51864">
        <ele>130.885773</ele>
        <time>2011-08-05T09:45:37Z</time>
      </trkpt>
      <trkpt lat="43.33374" lon="6.51825">
        <ele>136.80896</ele>
        <time>2011-08-05T09:46:02Z</time>
      </trkpt>
      <trkpt lat="43.33341" lon="6.51784">
        <ele>136.551147</ele>
        <time>2011-08-05T09:46:27Z</time>
      </trkpt>
      <trkpt lat="43.33355" lon="6.51726">
        <ele>141.212189</ele>
        <time>2011-08-05T09:46:47Z</time>
      </trkpt>
      <trkpt lat="43.33348" lon="6.51665">
        <ele>138.353745</ele>
        <time>2011-08-05T09:47:06Z</time>
      </trkpt>
      <trkpt lat="43.33336" lon="6.51611">
        <ele>146.4104</ele>
        <time>2011-08-05T09:47:32Z</time>
      </trkpt>
      <trkpt lat="43.33356" lon="6.51552">
        <ele>146.193375</ele>
        <time>2011-08-05T09:47:53Z</time>
      </trkpt>
      <trkpt lat="43.33376" lon="6.51525">
        <ele>153.080399</ele>
        <time>2011-08-05T09:48:40Z</time>
      </trkpt>
      <trkpt lat="43.33377" lon="6.51464">
        <ele>155.015244</ele>
        <time>2011-08-05T09:53:22Z</time>
      </trkpt>
      <trkpt lat="43.33367" lon="6.51407">
        <ele>160.92038</ele>
        <time>2011-08-05T09:53:47Z</time>
      </trkpt>
      <trkpt lat="43.33365" lon="6.51345">
        <ele>160.819626</ele>
        <time>2011-08-05T09:54:16Z</time>
      </trkpt>
      <trkpt lat="43.3337" lon="6.51279">
        <ele>160.731476</ele>
        <time>2011-08-05T09:54:49Z</time>
      </trkpt>
      <trkpt lat="43.33364" lon="6.51218">
        <ele>161.583817</ele>
        <time>2011-08-05T09:55:19Z</time>
      </trkpt>
      <trkpt lat="43.33356" lon="6.51179">
        <ele>168.625732</ele>
        <time>2011-08-05T09:55:50Z</time>
      </trkpt>
      <trkpt lat="43.33374" lon="6.51112">
        <ele>173.707504</ele>
        <time>2011-08-05T09:56:25Z</time>
      </trkpt>
      <trkpt lat="43.33394" lon="6.51052">
        <ele>175.226868</ele>
        <time>2011-08-05T09:56:58Z</time>
      </trkpt>
      <trkpt lat="43.33385" lon="6.50994">
        <ele>181.091751</ele>
        <time>2011-08-05T09:57:31Z</time>
      </trkpt>
      <trkpt lat="43.33366" lon="6.50934">
        <ele>190.489822</ele>
        <time>2011-08-05T09:59:52Z</time>
      </trkpt>
      <trkpt lat="43.33389" lon="6.50921">
        <ele>184.672836</ele>
        <time>2011-08-05T10:00:32Z</time>
      </trkpt>
      <trkpt lat="43.33413" lon="6.50889">
        <ele>185.896545</ele>
        <time>2011-08-05T10:01:23Z</time>
      </trkpt>
      <trkpt lat="43.33418" lon="6.50821">
        <ele>194.503479</ele>
        <time>2011-08-05T10:02:29Z</time>
      </trkpt>
      <trkpt lat="43.33424" lon="6.50758">
        <ele>199.101868</ele>
        <time>2011-08-05T10:03:27Z</time>
      </trkpt>
      <trkpt lat="43.3343" lon="6.50714">
        <ele>206.952179</ele>
        <time>2011-08-05T10:04:02Z</time>
      </trkpt>
      <trkpt lat="43.33468" lon="6.50683">
        <ele>208.510056</ele>
        <time>2011-08-05T10:04:37Z</time>
      </trkpt>
      <trkpt lat="43.33488" lon="6.50625">
        <ele>219.425644</ele>
        <time>2011-08-05T10:05:15Z</time>
      </trkpt>
      <trkpt lat="43.33507" lon="6.506">
        <ele>223.472061</ele>
        <time>2011-08-05T10:05:44Z</time>
      </trkpt>
      <trkpt lat="43.33544" lon="6.50642">
        <ele>218.206238</ele>
        <time>2011-08-05T10:06:11Z</time>
      </trkpt>
      <trkpt lat="43.33592" lon="6.50649">
        <ele>224.210205</ele>
        <time>2011-08-05T10:06:42Z</time>
      </trkpt>
      <trkpt lat="43.33638" lon="6.50656">
        <ele>229.49588</ele>
        <time>2011-08-05T10:07:15Z</time>
      </trkpt>
      <trkpt lat="43.33685" lon="6.50681">
        <ele>232.057495</ele>
        <time>2011-08-05T10:08:13Z</time>
      </trkpt>
      <trkpt lat="43.3373" lon="6.507">
        <ele>236.177307</ele>
        <time>2011-08-05T10:08:46Z</time>
      </trkpt>
      <trkpt lat="43.3376" lon="6.50704">
        <ele>241.841507</ele>
        <time>2011-08-05T10:09:17Z</time>
      </trkpt>
      <trkpt lat="43.33721" lon="6.50669">
        <ele>243.607666</ele>
        <time>2011-08-05T10:09:49Z</time>
      </trkpt>
      <trkpt lat="43.33686" lon="6.50622">
        <ele>249.960007</ele>
        <time>2011-08-05T10:10:29Z</time>
      </trkpt>
      <trkpt lat="43.33648" lon="6.50587">
        <ele>253.595688</ele>
        <time>2011-08-05T10:11:02Z</time>
      </trkpt>
      <trkpt lat="43.3361" lon="6.5055">
        <ele>254.642242</ele>
        <time>2011-08-05T10:11:33Z</time>
      </trkpt>
      <trkpt lat="43.33588" lon="6.50495">
        <ele>259.383423</ele>
        <time>2011-08-05T10:12:09Z</time>
      </trkpt>
      <trkpt lat="43.33567" lon="6.50434">
        <ele>263.620087</ele>
        <time>2011-08-05T10:12:40Z</time>
      </trkpt>
      <trkpt lat="43.33542" lon="6.50372">
        <ele>269.336212</ele>
        <time>2011-08-05T10:13:09Z</time>
      </trkpt>
      <trkpt lat="43.33511" lon="6.50322">
        <ele>275.542511</ele>
        <time>2011-08-05T10:13:41Z</time>
      </trkpt>
      <trkpt lat="43.33481" lon="6.50358">
        <ele>273.146729</ele>
        <time>2011-08-05T10:14:10Z</time>
      </trkpt>
      <trkpt lat="43.33454" lon="6.50409">
        <ele>277.601135</ele>
        <time>2011-08-05T10:14:40Z</time>
      </trkpt>
      <trkpt lat="43.33431" lon="6.50462">
        <ele>277.412903</ele>
        <time>2011-08-05T10:15:11Z</time>
      </trkpt>
      <trkpt lat="43.33405" lon="6.50482">
        <ele>283.347778</ele>
        <time>2011-08-05T10:28:20Z</time>
      </trkpt>
      <trkpt lat="43.33425" lon="6.5042">
        <ele>289.088837</ele>
        <time>2011-08-05T10:29:27Z</time>
      </trkpt>
      <trkpt lat="43.33441" lon="6.50359">
        <ele>293.310089</ele>
        <time>2011-08-05T10:29:57Z</time>
      </trkpt>
      <trkpt lat="43.33454" lon="6.503">
        <ele>297.948608</ele>
        <time>2011-08-05T10:30:28Z</time>
      </trkpt>
      <trkpt lat="43.33462" lon="6.50236">
        <ele>305.321472</ele>
        <time>2011-08-05T10:31:01Z</time>
      </trkpt>
      <trkpt lat="43.33446" lon="6.50277">
        <ele>304.313751</ele>
        <time>2011-08-05T10:31:36Z</time>
      </trkpt>
      <trkpt lat="43.33423" lon="6.50335">
        <ele>306.189026</ele>
        <time>2011-08-05T10:32:09Z</time>
      </trkpt>
      <trkpt lat="43.33396" lon="6.50387">
        <ele>309.594818</ele>
        <time>2011-08-05T10:32:40Z</time>
      </trkpt>
      <trkpt lat="43.33368" lon="6.50431">
        <ele>311.332794</ele>
        <time>2011-08-05T10:33:14Z</time>
      </trkpt>
      <trkpt lat="43.33322" lon="6.50446">
        <ele>316.917389</ele>
        <time>2011-08-05T10:33:44Z</time>
      </trkpt>
      <trkpt lat="43.3328" lon="6.5042">
        <ele>323.515869</ele>
        <time>2011-08-05T10:34:18Z</time>
      </trkpt>
      <trkpt lat="43.33289" lon="6.50414">
        <ele>327.46286</ele>
        <time>2011-08-05T10:34:49Z</time>
      </trkpt>
      <trkpt lat="43.33336" lon="6.50408">
        <ele>326.884918</ele>
        <time>2011-08-05T10:35:24Z</time>
      </trkpt>
      <trkpt lat="43.33365" lon="6.50351">
        <ele>332.374634</ele>
        <time>2011-08-05T10:36:09Z</time>
      </trkpt>
      <trkpt lat="43.33378" lon="6.5029">
        <ele>336.262482</ele>
        <time>2011-08-05T10:36:39Z</time>
      </trkpt>
      <trkpt lat="43.33383" lon="6.50225">
        <ele>342.597504</ele>
        <time>2011-08-05T10:37:13Z</time>
      </trkpt>
      <trkpt lat="43.33389" lon="6.50161">
        <ele>348.08374</ele>
        <time>2011-08-05T10:37:44Z</time>
      </trkpt>
      <trkpt lat="43.334" lon="6.50099">
        <ele>349.9758</ele>
        <time>2011-08-05T10:38:16Z</time>
      </trkpt>
      <trkpt lat="43.33405" lon="6.50031">
        <ele>356.383606</ele>
        <time>2011-08-05T10:38:46Z</time>
      </trkpt>
      <trkpt lat="43.33394" lon="6.49977">
        <ele>357.408691</ele>
        <time>2011-08-05T10:39:50Z</time>
      </trkpt>
      <trkpt lat="43.33361" lon="6.49933">
        <ele>351.69278</ele>
        <time>2011-08-05T10:40:06Z</time>
      </trkpt>
      <trkpt lat="43.33331" lon="6.49875">
        <ele>342.869995</ele>
        <time>2011-08-05T10:40:16Z</time>
      </trkpt>
      <trkpt lat="43.33288" lon="6.49903">
        <ele>349.721985</ele>
        <time>2011-08-05T10:40:26Z</time>
      </trkpt>
      <trkpt lat="43.33267" lon="6.49851">
        <ele>341.565796</ele>
        <time>2011-08-05T10:40:35Z</time>
      </trkpt>
      <trkpt lat="43.33228" lon="6.49873">
        <ele>346.376495</ele>
        <time>2011-08-05T10:40:44Z</time>
      </trkpt>
      <trkpt lat="43.33219" lon="6.49808">
        <ele>345.496063</ele>
        <time>2011-08-05T10:41:03Z</time>
      </trkpt>
      <trkpt lat="43.33201" lon="6.49752">
        <ele>344.144989</ele>
        <time>2011-08-05T10:41:23Z</time>
      </trkpt>
      <trkpt lat="43.33165" lon="6.49716">
        <ele>349.362061</ele>
        <time>2011-08-05T10:41:42Z</time>
      </trkpt>
      <trkpt lat="43.33125" lon="6.49681">
        <ele>351.776154</ele>
        <time>2011-08-05T10:42:05Z</time>
      </trkpt>
      <trkpt lat="43.33086" lon="6.49649">
        <ele>353.799683</ele>
        <time>2011-08-05T10:42:25Z</time>
      </trkpt>
      <trkpt lat="43.33045" lon="6.4962">
        <ele>353.96521</ele>
        <time>2011-08-05T10:42:47Z</time>
      </trkpt>
      <trkpt lat="43.32997" lon="6.49624">
        <ele>359.702118</ele>
        <time>2011-08-05T10:43:11Z</time>
      </trkpt>
      <trkpt lat="43.32951" lon="6.49601">
        <ele>360.519989</ele>
        <time>2011-08-05T10:43:37Z</time>
      </trkpt>
      <trkpt lat="43.329" lon="6.49587">
        <ele>365.595917</ele>
        <time>2011-08-05T10:43:55Z</time>
      </trkpt>
      <trkpt lat="43.32871" lon="6.49534">
        <ele>360.144501</ele>
        <time>2011-08-05T10:44:08Z</time>
      </trkpt>
      <trkpt lat="43.32838" lon="6.49481">
        <ele>357.540375</ele>
        <time>2011-08-05T10:44:18Z</time>
      </trkpt>
      <trkpt lat="43.32792" lon="6.49453">
        <ele>358.026154</ele>
        <time>2011-08-05T10:44:26Z</time>
      </trkpt>
      <trkpt lat="43.32748" lon="6.49409">
        <ele>353.246552</ele>
        <time>2011-08-05T10:44:49Z</time>
      </trkpt>
      <trkpt lat="43.32719" lon="6.49357">
        <ele>349.940002</ele>
        <time>2011-08-05T10:44:57Z</time>
      </trkpt>
      <trkpt lat="43.32686" lon="6.49309">
        <ele>350.581268</ele>
        <time>2011-08-05T10:45:06Z</time>
      </trkpt>
      <trkpt lat="43.32669" lon="6.49341">
        <ele>349.100677</ele>
        <time>2011-08-05T10:45:32Z</time>
      </trkpt>
      <trkpt lat="43.32655" lon="6.49402">
        <ele>349.236053</ele>
        <time>2011-08-05T10:45:51Z</time>
      </trkpt>
      <trkpt lat="43.32668" lon="6.49465">
        <ele>350.758453</ele>
        <time>2011-08-05T10:46:04Z</time>
      </trkpt>
      <trkpt lat="43.32686" lon="6.49531">
        <ele>351.705322</ele>
        <time>2011-08-05T10:46:14Z</time>
      </trkpt>
      <trkpt lat="43.327" lon="6.49587">
        <ele>355.114441</ele>
        <time>2011-08-05T10:46:22Z</time>
      </trkpt>
      <trkpt lat="43.32682" lon="6.49646">
        <ele>357.644012</ele>
        <time>2011-08-05T10:46:46Z</time>
      </trkpt>
      <trkpt lat="43.32689" lon="6.49716">
        <ele>365.067657</ele>
        <time>2011-08-05T10:47:14Z</time>
      </trkpt>
      <trkpt lat="43.3267" lon="6.49776">
        <ele>368.079437</ele>
        <time>2011-08-05T10:47:35Z</time>
      </trkpt>
      <trkpt lat="43.32623" lon="6.498">
        <ele>366.092499</ele>
        <time>2011-08-05T10:47:54Z</time>
      </trkpt>
      <trkpt lat="43.32584" lon="6.49845">
        <ele>371.569</ele>
        <time>2011-08-05T10:48:19Z</time>
      </trkpt>
      <trkpt lat="43.32539" lon="6.49876">
        <ele>371.565857</ele>
        <time>2011-08-05T10:48:35Z</time>
      </trkpt>
      <trkpt lat="43.32498" lon="6.49912">
        <ele>370.7117</ele>
        <time>2011-08-05T10:48:52Z</time>
      </trkpt>
      <trkpt lat="43.32473" lon="6.49971">
        <ele>373.708649</ele>
        <time>2011-08-05T10:49:14Z</time>
      </trkpt>
      <trkpt lat="43.32487" lon="6.50025">
        <ele>372.972504</ele>
        <time>2011-08-05T10:49:35Z</time>
      </trkpt>
      <trkpt lat="43.32527" lon="6.50045">
        <ele>377.189911</ele>
        <time>2011-08-05T10:49:54Z</time>
      </trkpt>
      <trkpt lat="43.32565" lon="6.50091">
        <ele>378.493744</ele>
        <time>2011-08-05T10:50:07Z</time>
      </trkpt>
      <trkpt lat="43.32591" lon="6.50147">
        <ele>380.799988</ele>
        <time>2011-08-05T10:50:16Z</time>
      </trkpt>
      <trkpt lat="43.32564" lon="6.50188">
        <ele>378.289764</ele>
        <time>2011-08-05T10:50:26Z</time>
      </trkpt>
      <trkpt lat="43.32514" lon="6.5018">
        <ele>372.773254</ele>
        <time>2011-08-05T10:50:35Z</time>
      </trkpt>
      <trkpt lat="43.32464" lon="6.50183">
        <ele>369.147644</ele>
        <time>2011-08-05T10:50:41Z</time>
      </trkpt>
      <trkpt lat="43.32417" lon="6.50181">
        <ele>366.480133</ele>
        <time>2011-08-05T10:50:46Z</time>
      </trkpt>
      <trkpt lat="43.32363" lon="6.50189">
        <ele>367.323761</ele>
        <time>2011-08-05T10:50:52Z</time>
      </trkpt>
      <trkpt lat="43.32318" lon="6.50175">
        <ele>363.456238</ele>
        <time>2011-08-05T10:50:57Z</time>
      </trkpt>
      <trkpt lat="43.32265" lon="6.50168">
        <ele>360.869385</ele>
        <time>2011-08-05T10:51:02Z</time>
      </trkpt>
      <trkpt lat="43.32217" lon="6.50157">
        <ele>356.352875</ele>
        <time>2011-08-05T10:51:07Z</time>
      </trkpt>
      <trkpt lat="43.32169" lon="6.5016">
        <ele>353.571991</ele>
        <time>2011-08-05T10:51:33Z</time>
      </trkpt>
      <trkpt lat="43.32121" lon="6.50186">
        <ele>352.478485</ele>
        <time>2011-08-05T10:51:43Z</time>
      </trkpt>
      <trkpt lat="43.32079" lon="6.50215">
        <ele>350.073639</ele>
        <time>2011-08-05T10:51:50Z</time>
      </trkpt>
      <trkpt lat="43.3204" lon="6.50249">
        <ele>348.769989</ele>
        <time>2011-08-05T10:51:56Z</time>
      </trkpt>
      <trkpt lat="43.31994" lon="6.50277">
        <ele>342.959991</ele>
        <time>2011-08-05T10:52:02Z</time>
      </trkpt>
      <trkpt lat="43.31941" lon="6.50284">
        <ele>335.866486</ele>
        <time>2011-08-05T10:52:08Z</time>
      </trkpt>
      <trkpt lat="43.3189" lon="6.50285">
        <ele>329.651337</ele>
        <time>2011-08-05T10:52:14Z</time>
      </trkpt>
      <trkpt lat="43.31841" lon="6.50274">
        <ele>325.786102</ele>
        <time>2011-08-05T10:52:21Z</time>
      </trkpt>
      <trkpt lat="43.31794" lon="6.50279">
        <ele>322.381317</ele>
        <time>2011-08-05T10:52:28Z</time>
      </trkpt>
      <trkpt lat="43.31786" lon="6.50266">
        <ele>321.513672</ele>
        <time>2011-08-05T10:52:40Z</time>
      </trkpt>
      <trkpt lat="43.31834" lon="6.50247">
        <ele>323.631531</ele>
        <time>2011-08-05T10:52:50Z</time>
      </trkpt>
      <trkpt lat="43.31799" lon="6.50223">
        <ele>315.452484</ele>
        <time>2011-08-05T10:52:59Z</time>
      </trkpt>
      <trkpt lat="43.31745" lon="6.50237">
        <ele>313.165894</ele>
        <time>2011-08-05T10:53:05Z</time>
      </trkpt>
      <trkpt lat="43.317" lon="6.50253">
        <ele>307.414337</ele>
        <time>2011-08-05T10:53:10Z</time>
      </trkpt>
      <trkpt lat="43.31649" lon="6.50259">
        <ele>301.637512</ele>
        <time>2011-08-05T10:53:15Z</time>
      </trkpt>
      <trkpt lat="43.31595" lon="6.50261">
        <ele>296.426575</ele>
        <time>2011-08-05T10:53:20Z</time>
      </trkpt>
      <trkpt lat="43.31549" lon="6.50262">
        <ele>290.442932</ele>
        <time>2011-08-05T10:53:24Z</time>
      </trkpt>
      <trkpt lat="43.31494" lon="6.50258">
        <ele>284.286957</ele>
        <time>2011-08-05T10:53:29Z</time>
      </trkpt>
      <trkpt lat="43.31452" lon="6.50242">
        <ele>282.223602</ele>
        <time>2011-08-05T10:53:34Z</time>
      </trkpt>
      <trkpt lat="43.31406" lon="6.50221">
        <ele>281.547058</ele>
        <time>2011-08-05T10:53:39Z</time>
      </trkpt>
      <trkpt lat="43.31359" lon="6.502">
        <ele>278.456055</ele>
        <time>2011-08-05T10:53:44Z</time>
      </trkpt>
      <trkpt lat="43.31316" lon="6.50169">
        <ele>275.670441</ele>
        <time>2011-08-05T10:53:49Z</time>
      </trkpt>
      <trkpt lat="43.31271" lon="6.50142">
        <ele>270.223206</ele>
        <time>2011-08-05T10:53:56Z</time>
      </trkpt>
      <trkpt lat="43.31242" lon="6.50192">
        <ele>270.241425</ele>
        <time>2011-08-05T10:54:04Z</time>
      </trkpt>
      <trkpt lat="43.31217" lon="6.50256">
        <ele>265.256317</ele>
        <time>2011-08-05T10:54:10Z</time>
      </trkpt>
      <trkpt lat="43.31205" lon="6.5031">
        <ele>258.18222</ele>
        <time>2011-08-05T10:54:19Z</time>
      </trkpt>
      <trkpt lat="43.31259" lon="6.50309">
        <ele>260.147491</ele>
        <time>2011-08-05T10:54:29Z</time>
      </trkpt>
      <trkpt lat="43.31306" lon="6.5032">
        <ele>262.456421</ele>
        <time>2011-08-05T10:54:36Z</time>
      </trkpt>
      <trkpt lat="43.31334" lon="6.50371">
        <ele>253.225266</ele>
        <time>2011-08-05T10:54:42Z</time>
      </trkpt>
      <trkpt lat="43.31381" lon="6.504">
        <ele>251.80838</ele>
        <time>2011-08-05T10:54:49Z</time>
      </trkpt>
      <trkpt lat="43.3143" lon="6.504">
        <ele>253.401993</ele>
        <time>2011-08-05T10:54:55Z</time>
      </trkpt>
      <trkpt lat="43.31475" lon="6.50431">
        <ele>245.449829</ele>
        <time>2011-08-05T10:55:02Z</time>
      </trkpt>
      <trkpt lat="43.31521" lon="6.50457">
        <ele>240.610001</ele>
        <time>2011-08-05T10:55:09Z</time>
      </trkpt>
      <trkpt lat="43.31575" lon="6.50448">
        <ele>244.761444</ele>
        <time>2011-08-05T10:55:16Z</time>
      </trkpt>
      <trkpt lat="43.31611" lon="6.50476">
        <ele>238.829056</ele>
        <time>2011-08-05T10:55:24Z</time>
      </trkpt>
      <trkpt lat="43.31652" lon="6.50511">
        <ele>232.740005</ele>
        <time>2011-08-05T10:55:31Z</time>
      </trkpt>
      <trkpt lat="43.31703" lon="6.50527">
        <ele>232.19281</ele>
        <time>2011-08-05T10:55:37Z</time>
      </trkpt>
      <trkpt lat="43.31745" lon="6.50558">
        <ele>226.86261</ele>
        <time>2011-08-05T10:55:42Z</time>
      </trkpt>
      <trkpt lat="43.31789" lon="6.50586">
        <ele>222.770874</ele>
        <time>2011-08-05T10:55:47Z</time>
      </trkpt>
      <trkpt lat="43.31835" lon="6.5061">
        <ele>222.887527</ele>
        <time>2011-08-05T10:55:52Z</time>
      </trkpt>
      <trkpt lat="43.3187" lon="6.50651">
        <ele>219.542328</ele>
        <time>2011-08-05T10:55:58Z</time>
      </trkpt>
      <trkpt lat="43.3191" lon="6.50691">
        <ele>214.898636</ele>
        <time>2011-08-05T10:56:04Z</time>
      </trkpt>
      <trkpt lat="43.31888" lon="6.5072">
        <ele>218.262985</ele>
        <time>2011-08-05T10:56:15Z</time>
      </trkpt>
      <trkpt lat="43.31841" lon="6.50693">
        <ele>212.388504</ele>
        <time>2011-08-05T10:56:23Z</time>
      </trkpt>
      <trkpt lat="43.31793" lon="6.50672">
        <ele>212.426102</ele>
        <time>2011-08-05T10:56:29Z</time>
      </trkpt>
      <trkpt lat="43.31741" lon="6.50656">
        <ele>210.709503</ele>
        <time>2011-08-05T10:56:35Z</time>
      </trkpt>
      <trkpt lat="43.31692" lon="6.50649">
        <ele>206.870743</ele>
        <time>2011-08-05T10:56:41Z</time>
      </trkpt>
      <trkpt lat="43.31646" lon="6.50664">
        <ele>202.015778</ele>
        <time>2011-08-05T10:56:48Z</time>
      </trkpt>
      <trkpt lat="43.31602" lon="6.50667">
        <ele>198.713745</ele>
        <time>2011-08-05T10:56:56Z</time>
      </trkpt>
      <trkpt lat="43.31552" lon="6.50665">
        <ele>195.637497</ele>
        <time>2011-08-05T10:57:03Z</time>
      </trkpt>
      <trkpt lat="43.31505" lon="6.5065">
        <ele>195.255829</ele>
        <time>2011-08-05T10:57:09Z</time>
      </trkpt>
      <trkpt lat="43.31454" lon="6.50628">
        <ele>194.400375</ele>
        <time>2011-08-05T10:57:15Z</time>
      </trkpt>
      <trkpt lat="43.31402" lon="6.5061">
        <ele>192.950806</ele>
        <time>2011-08-05T10:57:21Z</time>
      </trkpt>
      <trkpt lat="43.31351" lon="6.50613">
        <ele>191.490021</ele>
        <time>2011-08-05T10:57:27Z</time>
      </trkpt>
      <trkpt lat="43.31302" lon="6.50627">
        <ele>190.016724</ele>
        <time>2011-08-05T10:57:34Z</time>
      </trkpt>
      <trkpt lat="43.3126" lon="6.50643">
        <ele>188.693726</ele>
        <time>2011-08-05T10:57:46Z</time>
      </trkpt>
      <trkpt lat="43.31214" lon="6.50663">
        <ele>193.077728</ele>
        <time>2011-08-05T10:58:04Z</time>
      </trkpt>
      <trkpt lat="43.31165" lon="6.50665">
        <ele>192.566483</ele>
        <time>2011-08-05T10:58:23Z</time>
      </trkpt>
      <trkpt lat="43.31119" lon="6.50678">
        <ele>195.110245</ele>
        <time>2011-08-05T10:58:41Z</time>
      </trkpt>
      <trkpt lat="43.31076" lon="6.50699">
        <ele>197.325455</ele>
        <time>2011-08-05T10:58:56Z</time>
      </trkpt>
      <trkpt lat="43.31034" lon="6.50731">
        <ele>198.322098</ele>
        <time>2011-08-05T10:59:13Z</time>
      </trkpt>
      <trkpt lat="43.31031" lon="6.50797">
        <ele>196.745819</ele>
        <time>2011-08-05T10:59:28Z</time>
      </trkpt>
      <trkpt lat="43.31066" lon="6.50832">
        <ele>201.40625</ele>
        <time>2011-08-05T10:59:46Z</time>
      </trkpt>
      <trkpt lat="43.31103" lon="6.50867">
        <ele>205.691589</ele>
        <time>2011-08-05T11:00:08Z</time>
      </trkpt>
      <trkpt lat="43.31128" lon="6.50918">
        <ele>206.18602</ele>
        <time>2011-08-05T11:00:31Z</time>
      </trkpt>
      <trkpt lat="43.3116" lon="6.50963">
        <ele>212.009689</ele>
        <time>2011-08-05T11:00:55Z</time>
      </trkpt>
      <trkpt lat="43.31189" lon="6.5101">
        <ele>218.164124</ele>
        <time>2011-08-05T11:01:19Z</time>
      </trkpt>
      <trkpt lat="43.31188" lon="6.51078">
        <ele>216.290176</ele>
        <time>2011-08-05T11:01:42Z</time>
      </trkpt>
      <trkpt lat="43.31197" lon="6.51131">
        <ele>218.909317</ele>
        <time>2011-08-05T11:02:06Z</time>
      </trkpt>
      <trkpt lat="43.31229" lon="6.51179">
        <ele>222.962494</ele>
        <time>2011-08-05T11:03:08Z</time>
      </trkpt>
      <trkpt lat="43.31264" lon="6.5122">
        <ele>226.789368</ele>
        <time>2011-08-05T11:03:28Z</time>
      </trkpt>
      <trkpt lat="43.31295" lon="6.51264">
        <ele>228.741257</ele>
        <time>2011-08-05T11:03:51Z</time>
      </trkpt>
      <trkpt lat="43.31322" lon="6.51315">
        <ele>231.923203</ele>
        <time>2011-08-05T11:04:14Z</time>
      </trkpt>
      <trkpt lat="43.31327" lon="6.51377">
        <ele>233.651428</ele>
        <time>2011-08-05T11:04:32Z</time>
      </trkpt>
      <trkpt lat="43.31279" lon="6.51411">
        <ele>224.100067</ele>
        <time>2011-08-05T11:04:41Z</time>
      </trkpt>
      <trkpt lat="43.31262" lon="6.5147">
        <ele>219.912781</ele>
        <time>2011-08-05T11:04:48Z</time>
      </trkpt>
      <trkpt lat="43.31278" lon="6.5153">
        <ele>222.379166</ele>
        <time>2011-08-05T11:04:54Z</time>
      </trkpt>
      <trkpt lat="43.31288" lon="6.51585">
        <ele>226.548889</ele>
        <time>2011-08-05T11:05:03Z</time>
      </trkpt>
      <trkpt lat="43.31268" lon="6.51644">
        <ele>224.063126</ele>
        <time>2011-08-05T11:05:17Z</time>
      </trkpt>
      <trkpt lat="43.31262" lon="6.51706">
        <ele>223.315002</ele>
        <time>2011-08-05T11:05:27Z</time>
      </trkpt>
      <trkpt lat="43.3126" lon="6.5177">
        <ele>214.567398</ele>
        <time>2011-08-05T11:05:34Z</time>
      </trkpt>
      <trkpt lat="43.31282" lon="6.51824">
        <ele>211.241318</ele>
        <time>2011-08-05T11:05:40Z</time>
      </trkpt>
      <trkpt lat="43.31334" lon="6.51833">
        <ele>211.891525</ele>
        <time>2011-08-05T11:05:47Z</time>
      </trkpt>
      <trkpt lat="43.31384" lon="6.51837">
        <ele>212.637497</ele>
        <time>2011-08-05T11:05:54Z</time>
      </trkpt>
      <trkpt lat="43.31428" lon="6.51876">
        <ele>205.64798</ele>
        <time>2011-08-05T11:06:01Z</time>
      </trkpt>
      <trkpt lat="43.31464" lon="6.51906">
        <ele>200.119995</ele>
        <time>2011-08-05T11:06:08Z</time>
      </trkpt>
      <trkpt lat="43.31516" lon="6.51894">
        <ele>199.751663</ele>
        <time>2011-08-05T11:06:15Z</time>
      </trkpt>
      <trkpt lat="43.31562" lon="6.51909">
        <ele>198.949753</ele>
        <time>2011-08-05T11:06:21Z</time>
      </trkpt>
      <trkpt lat="43.31556" lon="6.51943">
        <ele>201.779922</ele>
        <time>2011-08-05T11:06:31Z</time>
      </trkpt>
      <trkpt lat="43.31511" lon="6.51961">
        <ele>198.848846</ele>
        <time>2011-08-05T11:06:51Z</time>
      </trkpt>
      <trkpt lat="43.31471" lon="6.5199">
        <ele>199.947891</ele>
        <time>2011-08-05T11:08:42Z</time>
      </trkpt>
      <trkpt lat="43.31464" lon="6.52049">
        <ele>205.937515</ele>
        <time>2011-08-05T11:09:09Z</time>
      </trkpt>
      <trkpt lat="43.31476" lon="6.52108">
        <ele>211.946442</ele>
        <time>2011-08-05T11:09:35Z</time>
      </trkpt>
      <trkpt lat="43.31496" lon="6.52157">
        <ele>218.648438</ele>
        <time>2011-08-05T11:10:34Z</time>
      </trkpt>
      <trkpt lat="43.31468" lon="6.52202">
        <ele>217.722092</ele>
        <time>2011-08-05T11:11:01Z</time>
      </trkpt>
      <trkpt lat="43.31462" lon="6.52259">
        <ele>224.303284</ele>
        <time>2011-08-05T11:11:26Z</time>
      </trkpt>
      <trkpt lat="43.31423" lon="6.52288">
        <ele>226.619995</ele>
        <time>2011-08-05T11:11:54Z</time>
      </trkpt>
      <trkpt lat="43.31379" lon="6.52296">
        <ele>227.541992</ele>
        <time>2011-08-05T11:12:18Z</time>
      </trkpt>
      <trkpt lat="43.3134" lon="6.52332">
        <ele>233.571304</ele>
        <time>2011-08-05T11:12:44Z</time>
      </trkpt>
      <trkpt lat="43.31298" lon="6.52357">
        <ele>231.773712</ele>
        <time>2011-08-05T11:13:03Z</time>
      </trkpt>
      <trkpt lat="43.31266" lon="6.52408">
        <ele>233.126297</ele>
        <time>2011-08-05T11:13:22Z</time>
      </trkpt>
      <trkpt lat="43.31258" lon="6.52468">
        <ele>235.927902</ele>
        <time>2011-08-05T11:13:37Z</time>
      </trkpt>
      <trkpt lat="43.3129" lon="6.52513">
        <ele>241.654617</ele>
        <time>2011-08-05T11:13:58Z</time>
      </trkpt>
      <trkpt lat="43.31325" lon="6.52551">
        <ele>243.468903</ele>
        <time>2011-08-05T11:14:23Z</time>
      </trkpt>
      <trkpt lat="43.31365" lon="6.52581">
        <ele>248.797501</ele>
        <time>2011-08-05T11:14:48Z</time>
      </trkpt>
      <trkpt lat="43.31386" lon="6.52631">
        <ele>246.895142</ele>
        <time>2011-08-05T11:15:12Z</time>
      </trkpt>
      <trkpt lat="43.31357" lon="6.52656">
        <ele>251.004501</ele>
        <time>2011-08-05T11:16:33Z</time>
      </trkpt>
      <trkpt lat="43.31312" lon="6.52633">
        <ele>252.951508</ele>
        <time>2011-08-05T11:17:03Z</time>
      </trkpt>
      <trkpt lat="43.31266" lon="6.52591">
        <ele>249.675705</ele>
        <time>2011-08-05T11:17:13Z</time>
      </trkpt>
      <trkpt lat="43.31221" lon="6.52576">
        <ele>247.432922</ele>
        <time>2011-08-05T11:17:21Z</time>
      </trkpt>
      <trkpt lat="43.31172" lon="6.52578">
        <ele>244.273819</ele>
        <time>2011-08-05T11:17:29Z</time>
      </trkpt>
      <trkpt lat="43.31121" lon="6.52581">
        <ele>238.32431</ele>
        <time>2011-08-05T11:18:08Z</time>
      </trkpt>
      <trkpt lat="43.31073" lon="6.52582">
        <ele>236.600418</ele>
        <time>2011-08-05T11:18:16Z</time>
      </trkpt>
      <trkpt lat="43.31059" lon="6.52548">
        <ele>234.432892</ele>
        <time>2011-08-05T11:18:30Z</time>
      </trkpt>
      <trkpt lat="43.31088" lon="6.52501">
        <ele>237.910995</ele>
        <time>2011-08-05T11:18:55Z</time>
      </trkpt>
      <trkpt lat="43.31094" lon="6.52439">
        <ele>243.98793</ele>
        <time>2011-08-05T11:19:20Z</time>
      </trkpt>
      <trkpt lat="43.31084" lon="6.5238">
        <ele>250.437454</ele>
        <time>2011-08-05T11:20:13Z</time>
      </trkpt>
      <trkpt lat="43.31093" lon="6.52319">
        <ele>251.490906</ele>
        <time>2011-08-05T11:20:39Z</time>
      </trkpt>
      <trkpt lat="43.31068" lon="6.5227">
        <ele>254.352707</ele>
        <time>2011-08-05T11:21:06Z</time>
      </trkpt>
      <trkpt lat="43.31028" lon="6.52236">
        <ele>257.234314</ele>
        <time>2011-08-05T11:21:31Z</time>
      </trkpt>
      <trkpt lat="43.30984" lon="6.52234">
        <ele>261.244812</ele>
        <time>2011-08-05T11:21:56Z</time>
      </trkpt>
      <trkpt lat="43.30944" lon="6.52264">
        <ele>261.685822</ele>
        <time>2011-08-05T11:22:13Z</time>
      </trkpt>
      <trkpt lat="43.30898" lon="6.52267">
        <ele>261.524994</ele>
        <time>2011-08-05T11:22:28Z</time>
      </trkpt>
      <trkpt lat="43.30854" lon="6.52259">
        <ele>263.747375</ele>
        <time>2011-08-05T11:22:44Z</time>
      </trkpt>
      <trkpt lat="43.30809" lon="6.52226">
        <ele>262.889191</ele>
        <time>2011-08-05T11:23:05Z</time>
      </trkpt>
      <trkpt lat="43.3076" lon="6.52223">
        <ele>264.276642</ele>
        <time>2011-08-05T11:23:19Z</time>
      </trkpt>
      <trkpt lat="43.30711" lon="6.52209">
        <ele>266.897278</ele>
        <time>2011-08-05T11:23:34Z</time>
      </trkpt>
      <trkpt lat="43.30672" lon="6.52175">
        <ele>268.006378</ele>
        <time>2011-08-05T11:23:53Z</time>
      </trkpt>
      <trkpt lat="43.30629" lon="6.5215">
        <ele>269.790955</ele>
        <time>2011-08-05T11:24:08Z</time>
      </trkpt>
      <trkpt lat="43.30586" lon="6.52116">
        <ele>270.730011</ele>
        <time>2011-08-05T11:24:26Z</time>
      </trkpt>
      <trkpt lat="43.30539" lon="6.52093">
        <ele>271.415009</ele>
        <time>2011-08-05T11:24:42Z</time>
      </trkpt>
      <trkpt lat="43.30495" lon="6.52079">
        <ele>270.960114</ele>
        <time>2011-08-05T11:24:55Z</time>
      </trkpt>
      <trkpt lat="43.30446" lon="6.52094">
        <ele>275.591095</ele>
        <time>2011-08-05T11:25:16Z</time>
      </trkpt>
      <trkpt lat="43.30404" lon="6.52068">
        <ele>272.796326</ele>
        <time>2011-08-05T11:25:37Z</time>
      </trkpt>
      <trkpt lat="43.30355" lon="6.52053">
        <ele>271.31601</ele>
        <time>2011-08-05T11:26:12Z</time>
      </trkpt>
      <trkpt lat="43.30311" lon="6.52043">
        <ele>269.302399</ele>
        <time>2011-08-05T11:26:30Z</time>
      </trkpt>
      <trkpt lat="43.3027" lon="6.52009">
        <ele>273.321869</ele>
        <time>2011-08-05T11:26:43Z</time>
      </trkpt>
      <trkpt lat="43.30227" lon="6.51994">
        <ele>274.380219</ele>
        <time>2011-08-05T11:26:55Z</time>
      </trkpt>
      <trkpt lat="43.30171" lon="6.51984">
        <ele>272.696442</ele>
        <time>2011-08-05T11:27:04Z</time>
      </trkpt>
      <trkpt lat="43.30126" lon="6.5197">
        <ele>266.356262</ele>
        <time>2011-08-05T11:27:14Z</time>
      </trkpt>
      <trkpt lat="43.3009" lon="6.51928">
        <ele>265.484497</ele>
        <time>2011-08-05T11:27:24Z</time>
      </trkpt>
      <trkpt lat="43.30044" lon="6.51914">
        <ele>261.892426</ele>
        <time>2011-08-05T11:27:31Z</time>
      </trkpt>
      <trkpt lat="43.29996" lon="6.51919">
        <ele>257.378571</ele>
        <time>2011-08-05T11:27:38Z</time>
      </trkpt>
      <trkpt lat="43.29949" lon="6.5191">
        <ele>253.461227</ele>
        <time>2011-08-05T11:27:47Z</time>
      </trkpt>
      <trkpt lat="43.2991" lon="6.51869">
        <ele>251.680008</ele>
        <time>2011-08-05T11:27:58Z</time>
      </trkpt>
      <trkpt lat="43.29874" lon="6.51829">
        <ele>247.015396</ele>
        <time>2011-08-05T11:28:05Z</time>
      </trkpt>
      <trkpt lat="43.29835" lon="6.51795">
        <ele>238.618713</ele>
        <time>2011-08-05T11:28:12Z</time>
      </trkpt>
      <trkpt lat="43.29831" lon="6.51735">
        <ele>243.241653</ele>
        <time>2011-08-05T11:28:23Z</time>
      </trkpt>
      <trkpt lat="43.29789" lon="6.51717">
        <ele>237.90181</ele>
        <time>2011-08-05T11:28:32Z</time>
      </trkpt>
      <trkpt lat="43.29747" lon="6.51744">
        <ele>229.178802</ele>
        <time>2011-08-05T11:28:41Z</time>
      </trkpt>
      <trkpt lat="43.297" lon="6.51746">
        <ele>231.173126</ele>
        <time>2011-08-05T11:28:50Z</time>
      </trkpt>
      <trkpt lat="43.29659" lon="6.51781">
        <ele>224.622498</ele>
        <time>2011-08-05T11:28:57Z</time>
      </trkpt>
      <trkpt lat="43.29616" lon="6.51795">
        <ele>221.903137</ele>
        <time>2011-08-05T11:29:03Z</time>
      </trkpt>
      <trkpt lat="43.2957" lon="6.51809">
        <ele>218.044006</ele>
        <time>2011-08-05T11:29:11Z</time>
      </trkpt>
      <trkpt lat="43.29524" lon="6.51819">
        <ele>211.458939</ele>
        <time>2011-08-05T11:29:21Z</time>
      </trkpt>
      <trkpt lat="43.29475" lon="6.51798">
        <ele>207.201996</ele>
        <time>2011-08-05T11:29:28Z</time>
      </trkpt>
      <trkpt lat="43.29431" lon="6.5178">
        <ele>198.934433</ele>
        <time>2011-08-05T11:29:36Z</time>
      </trkpt>
      <trkpt lat="43.29386" lon="6.51788">
        <ele>190.001129</ele>
        <time>2011-08-05T11:29:43Z</time>
      </trkpt>
      <trkpt lat="43.29339" lon="6.51783">
        <ele>184.994492</ele>
        <time>2011-08-05T11:29:51Z</time>
      </trkpt>
      <trkpt lat="43.29311" lon="6.51802">
        <ele>183.104996</ele>
        <time>2011-08-05T11:30:02Z</time>
      </trkpt>
      <trkpt lat="43.29298" lon="6.51834">
        <ele>176.850006</ele>
        <time>2011-08-05T11:30:13Z</time>
      </trkpt>
      <trkpt lat="43.29248" lon="6.51851">
        <ele>169.269363</ele>
        <time>2011-08-05T11:30:21Z</time>
      </trkpt>
      <trkpt lat="43.29216" lon="6.51805">
        <ele>167.218048</ele>
        <time>2011-08-05T11:30:28Z</time>
      </trkpt>
      <trkpt lat="43.29169" lon="6.51789">
        <ele>159.102524</ele>
        <time>2011-08-05T11:30:35Z</time>
      </trkpt>
      <trkpt lat="43.29125" lon="6.51782">
        <ele>151.102875</ele>
        <time>2011-08-05T11:30:44Z</time>
      </trkpt>
      <trkpt lat="43.29084" lon="6.51746">
        <ele>145.234741</ele>
        <time>2011-08-05T11:30:50Z</time>
      </trkpt>
      <trkpt lat="43.29042" lon="6.51714">
        <ele>139.646744</ele>
        <time>2011-08-05T11:30:55Z</time>
      </trkpt>
      <trkpt lat="43.28999" lon="6.51685">
        <ele>136.752151</ele>
        <time>2011-08-05T11:31:00Z</time>
      </trkpt>
      <trkpt lat="43.28952" lon="6.51671">
        <ele>134.670456</ele>
        <time>2011-08-05T11:31:06Z</time>
      </trkpt>
      <trkpt lat="43.28984" lon="6.5171">
        <ele>128.252594</ele>
        <time>2011-08-05T11:31:17Z</time>
      </trkpt>
      <trkpt lat="43.28974" lon="6.51732">
        <ele>121.742599</ele>
        <time>2011-08-05T11:31:28Z</time>
      </trkpt>
      <trkpt lat="43.28928" lon="6.51747">
        <ele>116.679733</ele>
        <time>2011-08-05T11:31:36Z</time>
      </trkpt>
      <trkpt lat="43.2889" lon="6.51775">
        <ele>111.36097</ele>
        <time>2011-08-05T11:31:44Z</time>
      </trkpt>
      <trkpt lat="43.28843" lon="6.51757">
        <ele>108.694809</ele>
        <time>2011-08-05T11:31:50Z</time>
      </trkpt>
      <trkpt lat="43.28794" lon="6.51732">
        <ele>102.509453</ele>
        <time>2011-08-05T11:31:56Z</time>
      </trkpt>
      <trkpt lat="43.28752" lon="6.51708">
        <ele>99.940186</ele>
        <time>2011-08-05T11:32:01Z</time>
      </trkpt>
      <trkpt lat="43.28697" lon="6.51699">
        <ele>94.34816</ele>
        <time>2011-08-05T11:32:07Z</time>
      </trkpt>
      <trkpt lat="43.28647" lon="6.51711">
        <ele>86.765968</ele>
        <time>2011-08-05T11:32:12Z</time>
      </trkpt>
      <trkpt lat="43.28597" lon="6.5172">
        <ele>80.104156</ele>
        <time>2011-08-05T11:32:17Z</time>
      </trkpt>
      <trkpt lat="43.2855" lon="6.5171">
        <ele>78.153122</ele>
        <time>2011-08-05T11:32:21Z</time>
      </trkpt>
      <trkpt lat="43.28503" lon="6.51716">
        <ele>70.604439</ele>
        <time>2011-08-05T11:32:26Z</time>
      </trkpt>
      <trkpt lat="43.28455" lon="6.51715">
        <ele>66.009148</ele>
        <time>2011-08-05T11:32:31Z</time>
      </trkpt>
      <trkpt lat="43.28411" lon="6.51696">
        <ele>62.449001</ele>
        <time>2011-08-05T11:32:37Z</time>
      </trkpt>
      <trkpt lat="43.2837" lon="6.5171">
        <ele>60.0667</ele>
        <time>2011-08-05T11:32:45Z</time>
      </trkpt>
      <trkpt lat="43.28322" lon="6.51701">
        <ele>57.887501</ele>
        <time>2011-08-05T11:32:51Z</time>
      </trkpt>
      <trkpt lat="43.28268" lon="6.51688">
        <ele>57.911842</ele>
        <time>2011-08-05T11:32:57Z</time>
      </trkpt>
      <trkpt lat="43.28219" lon="6.51677">
        <ele>60.35442</ele>
        <time>2011-08-05T11:33:03Z</time>
      </trkpt>
      <trkpt lat="43.28176" lon="6.51687">
        <ele>60.340961</ele>
        <time>2011-08-05T11:33:16Z</time>
      </trkpt>
      <trkpt lat="43.28132" lon="6.51666">
        <ele>62.384899</ele>
        <time>2011-08-05T11:33:34Z</time>
      </trkpt>
      <trkpt lat="43.28082" lon="6.51647">
        <ele>61.601105</ele>
        <time>2011-08-05T11:33:48Z</time>
      </trkpt>
      <trkpt lat="43.28036" lon="6.51636">
        <ele>62.367249</ele>
        <time>2011-08-05T11:33:59Z</time>
      </trkpt>
      <trkpt lat="43.27989" lon="6.51632">
        <ele>62.662498</ele>
        <time>2011-08-05T11:34:12Z</time>
      </trkpt>
      <trkpt lat="43.27939" lon="6.51624">
        <ele>62.638256</ele>
        <time>2011-08-05T11:34:23Z</time>
      </trkpt>
      <trkpt lat="43.27892" lon="6.51607">
        <ele>64.502998</ele>
        <time>2011-08-05T11:34:30Z</time>
      </trkpt>
      <trkpt lat="43.27844" lon="6.51594">
        <ele>63.312473</ele>
        <time>2011-08-05T11:34:38Z</time>
      </trkpt>
      <trkpt lat="43.27798" lon="6.5158">
        <ele>62.620468</ele>
        <time>2011-08-05T11:34:47Z</time>
      </trkpt>
      <trkpt lat="43.27748" lon="6.51567">
        <ele>64.065155</ele>
        <time>2011-08-05T11:35:00Z</time>
      </trkpt>
      <trkpt lat="43.27698" lon="6.51566">
        <ele>67.034561</ele>
        <time>2011-08-05T11:35:16Z</time>
      </trkpt>
      <trkpt lat="43.27653" lon="6.51565">
        <ele>70.196991</ele>
        <time>2011-08-05T11:35:33Z</time>
      </trkpt>
      <trkpt lat="43.27659" lon="6.5158">
        <ele>69.291023</ele>
        <time>2011-08-05T11:36:04Z</time>
      </trkpt>
      <trkpt lat="43.27708" lon="6.51585">
        <ele>64.416664</ele>
        <time>2011-08-05T11:36:12Z</time>
      </trkpt>
      <trkpt lat="43.27753" lon="6.51586">
        <ele>61.538662</ele>
        <time>2011-08-05T11:36:22Z</time>
      </trkpt>
      <trkpt lat="43.27801" lon="6.51593">
        <ele>60.919682</ele>
        <time>2011-08-05T11:36:32Z</time>
      </trkpt>
      <trkpt lat="43.27851" lon="6.51605">
        <ele>61.859818</ele>
        <time>2011-08-05T11:36:42Z</time>
      </trkpt>
      <trkpt lat="43.27898" lon="6.51621">
        <ele>61.315498</ele>
        <time>2011-08-05T11:36:52Z</time>
      </trkpt>
      <trkpt lat="43.27945" lon="6.51638">
        <ele>59.666283</ele>
        <time>2011-08-05T11:37:11Z</time>
      </trkpt>
      <trkpt lat="43.27994" lon="6.5164">
        <ele>60.7775</ele>
        <time>2011-08-05T11:37:28Z</time>
      </trkpt>
      <trkpt lat="43.28046" lon="6.5165">
        <ele>60.368664</ele>
        <time>2011-08-05T11:37:41Z</time>
      </trkpt>
      <trkpt lat="43.28096" lon="6.51659">
        <ele>60.928051</ele>
        <time>2011-08-05T11:37:53Z</time>
      </trkpt>
      <trkpt lat="43.28145" lon="6.51683">
        <ele>60.315849</ele>
        <time>2011-08-05T11:38:06Z</time>
      </trkpt>
      <trkpt lat="43.28192" lon="6.51703">
        <ele>57.228062</ele>
        <time>2011-08-05T11:38:14Z</time>
      </trkpt>
      <trkpt lat="43.2824" lon="6.51688">
        <ele>58.732281</ele>
        <time>2011-08-05T11:38:21Z</time>
      </trkpt>
      <trkpt lat="43.28288" lon="6.51702">
        <ele>57.670277</ele>
        <time>2011-08-05T11:38:29Z</time>
      </trkpt>
      <trkpt lat="43.28303" lon="6.51706">
        <ele>57.5424</ele>
        <time>2011-08-05T11:38:49Z</time>
      </trkpt>
      <trkpt lat="43.28255" lon="6.51692">
        <ele>58.187519</ele>
        <time>2011-08-05T11:38:59Z</time>
      </trkpt>
      <trkpt lat="43.28211" lon="6.51684">
        <ele>59.950901</ele>
        <time>2011-08-05T11:39:09Z</time>
      </trkpt>
      <trkpt lat="43.28164" lon="6.51681">
        <ele>61.287498</ele>
        <time>2011-08-05T11:39:26Z</time>
      </trkpt>
      <trkpt lat="43.28118" lon="6.51655">
        <ele>63.0401</ele>
        <time>2011-08-05T11:39:43Z</time>
      </trkpt>
      <trkpt lat="43.2807" lon="6.51647">
        <ele>61.262787</ele>
        <time>2011-08-05T11:39:56Z</time>
      </trkpt>
      <trkpt lat="43.28026" lon="6.51635">
        <ele>62.634499</ele>
        <time>2011-08-05T11:40:08Z</time>
      </trkpt>
      <trkpt lat="43.27982" lon="6.51633">
        <ele>61.9375</ele>
        <time>2011-08-05T11:40:21Z</time>
      </trkpt>
      <trkpt lat="43.27936" lon="6.5163">
        <ele>60.887844</ele>
        <time>2011-08-05T11:40:31Z</time>
      </trkpt>
      <trkpt lat="43.27889" lon="6.51609">
        <ele>63.618313</ele>
        <time>2011-08-05T11:40:40Z</time>
      </trkpt>
      <trkpt lat="43.27841" lon="6.51595">
        <ele>62.984344</ele>
        <time>2011-08-05T11:40:52Z</time>
      </trkpt>
      <trkpt lat="43.27789" lon="6.51578">
        <ele>62.442951</ele>
        <time>2011-08-05T11:41:06Z</time>
      </trkpt>
      <trkpt lat="43.27739" lon="6.51571">
        <ele>63.943268</ele>
        <time>2011-08-05T11:41:21Z</time>
      </trkpt>
      <trkpt lat="43.27691" lon="6.5157">
        <ele>67.117439</ele>
        <time>2011-08-05T11:41:35Z</time>
      </trkpt>
      <trkpt lat="43.27645" lon="6.5157">
        <ele>70.768997</ele>
        <time>2011-08-05T11:41:52Z</time>
      </trkpt>
      <trkpt lat="43.27621" lon="6.51596">
        <ele>72.613914</ele>
        <time>2011-08-05T11:42:24Z</time>
      </trkpt>
      <trkpt lat="43.27657" lon="6.51625">
        <ele>70.018387</ele>
        <time>2011-08-05T11:42:58Z</time>
      </trkpt>
      <trkpt lat="43.27682" lon="6.51674">
        <ele>69.187996</ele>
        <time>2011-08-05T11:43:11Z</time>
      </trkpt>
      <trkpt lat="43.27677" lon="6.5174">
        <ele>65.628059</ele>
        <time>2011-08-05T11:43:52Z</time>
      </trkpt>
      <trkpt lat="43.27641" lon="6.51786">
        <ele>64.392502</ele>
        <time>2011-08-05T11:44:02Z</time>
      </trkpt>
      <trkpt lat="43.27605" lon="6.51825">
        <ele>68.501038</ele>
        <time>2011-08-05T11:44:11Z</time>
      </trkpt>
      <trkpt lat="43.2759" lon="6.51882">
        <ele>66.60125</ele>
        <time>2011-08-05T11:44:27Z</time>
      </trkpt>
      <trkpt lat="43.27596" lon="6.51944">
        <ele>67.338753</ele>
        <time>2011-08-05T11:45:19Z</time>
      </trkpt>
      <trkpt lat="43.2761" lon="6.52003">
        <ele>72.049103</ele>
        <time>2011-08-05T11:46:25Z</time>
      </trkpt>
      <trkpt lat="43.27662" lon="6.52064">
        <ele>66.186699</ele>
        <time>2011-08-05T11:46:45Z</time>
      </trkpt>
      <trkpt lat="43.27703" lon="6.5212">
        <ele>74.532578</ele>
        <time>2011-08-05T11:47:05Z</time>
      </trkpt>
      <trkpt lat="43.27751" lon="6.52107">
        <ele>69.275002</ele>
        <time>2011-08-05T11:47:53Z</time>
      </trkpt>
      <trkpt lat="43.27786" lon="6.52078">
        <ele>54.025536</ele>
        <time>2011-08-05T11:49:28Z</time>
      </trkpt>
      <trkpt lat="43.27811" lon="6.5204">
        <ele>43.124702</ele>
        <time>2011-08-05T11:51:12Z</time>
      </trkpt>
      <trkpt lat="43.27836" lon="6.52056">
        <ele>38.938251</ele>
        <time>2011-08-05T11:52:28Z</time>
      </trkpt>
      <trkpt lat="43.27836" lon="6.52118">
        <ele>42.811001</ele>
        <time>2011-08-05T11:52:48Z</time>
      </trkpt>
      <trkpt lat="43.27842" lon="6.52179">
        <ele>44.705242</ele>
        <time>2011-08-05T11:53:08Z</time>
      </trkpt>
      <trkpt lat="43.2785" lon="6.52241">
        <ele>47.064468</ele>
        <time>2011-08-05T11:53:35Z</time>
      </trkpt>
      <trkpt lat="43.27851" lon="6.52306">
        <ele>45.759151</ele>
        <time>2011-08-05T11:53:54Z</time>
      </trkpt>
      <trkpt lat="43.27855" lon="6.52367">
        <ele>40.783924</ele>
        <time>2011-08-05T11:54:14Z</time>
      </trkpt>
      <trkpt lat="43.27861" lon="6.5243">
        <ele>39.764282</ele>
        <time>2011-08-05T11:55:01Z</time>
      </trkpt>
      <trkpt lat="43.27852" lon="6.52495">
        <ele>40.916874</ele>
        <time>2011-08-05T11:55:16Z</time>
      </trkpt>
      <trkpt lat="43.27845" lon="6.52557">
        <ele>38.129673</ele>
        <time>2011-08-05T11:55:29Z</time>
      </trkpt>
      <trkpt lat="43.27829" lon="6.52611">
        <ele>32.836086</ele>
        <time>2011-08-05T11:55:42Z</time>
      </trkpt>
      <trkpt lat="43.27786" lon="6.52595">
        <ele>31.594337</ele>
        <time>2011-08-05T11:55:52Z</time>
      </trkpt>
      <trkpt lat="43.27758" lon="6.52632">
        <ele>26.948906</ele>
        <time>2011-08-05T11:56:04Z</time>
      </trkpt>
      <trkpt lat="43.27708" lon="6.52636">
        <ele>25.686625</ele>
        <time>2011-08-05T11:56:17Z</time>
      </trkpt>
      <trkpt lat="43.27668" lon="6.5267">
        <ele>23.473866</ele>
        <time>2011-08-05T11:56:32Z</time>
      </trkpt>
      <trkpt lat="43.27643" lon="6.52723">
        <ele>22.58762</ele>
        <time>2011-08-05T11:56:44Z</time>
      </trkpt>
      <trkpt lat="43.27615" lon="6.5277">
        <ele>21.546944</ele>
        <time>2011-08-05T11:56:58Z</time>
      </trkpt>
      <trkpt lat="43.27617" lon="6.52834">
        <ele>21.3449</ele>
        <time>2011-08-05T11:57:13Z</time>
      </trkpt>
      <trkpt lat="43.27615" lon="6.52896">
        <ele>20.936874</ele>
        <time>2011-08-05T11:57:26Z</time>
      </trkpt>
      <trkpt lat="43.27631" lon="6.52958">
        <ele>20.454081</ele>
        <time>2011-08-05T11:57:39Z</time>
      </trkpt>
      <trkpt lat="43.2765" lon="6.53013">
        <ele>20.51</ele>
        <time>2011-08-05T11:57:55Z</time>
      </trkpt>
      <trkpt lat="43.27656" lon="6.53075">
        <ele>20.277338</ele>
        <time>2011-08-05T11:58:09Z</time>
      </trkpt>
      <trkpt lat="43.27638" lon="6.53134">
        <ele>20.201187</ele>
        <time>2011-08-05T11:58:22Z</time>
      </trkpt>
      <trkpt lat="43.27616" lon="6.5319">
        <ele>20.490988</ele>
        <time>2011-08-05T11:58:35Z</time>
      </trkpt>
      <trkpt lat="43.2759" lon="6.53243">
        <ele>19.574093</ele>
        <time>2011-08-05T11:58:47Z</time>
      </trkpt>
      <trkpt lat="43.27568" lon="6.53301">
        <ele>18.6257</ele>
        <time>2011-08-05T11:58:59Z</time>
      </trkpt>
      <trkpt lat="43.27549" lon="6.53359">
        <ele>18.522499</ele>
        <time>2011-08-05T11:59:11Z</time>
      </trkpt>
      <trkpt lat="43.27538" lon="6.53421">
        <ele>17.5</ele>
        <time>2011-08-05T11:59:23Z</time>
      </trkpt>
      <trkpt lat="43.2752" lon="6.53477">
        <ele>16.588156</ele>
        <time>2011-08-05T11:59:35Z</time>
      </trkpt>
      <trkpt lat="43.27493" lon="6.53531">
        <ele>16.511719</ele>
        <time>2011-08-05T11:59:46Z</time>
      </trkpt>
      <trkpt lat="43.27473" lon="6.53588">
        <ele>16.35</ele>
        <time>2011-08-05T11:59:56Z</time>
      </trkpt>
      <trkpt lat="43.27453" lon="6.53649">
        <ele>17.305</ele>
        <time>2011-08-05T12:00:06Z</time>
      </trkpt>
      <trkpt lat="43.27431" lon="6.53708">
        <ele>18.364985</ele>
        <time>2011-08-05T12:00:15Z</time>
      </trkpt>
      <trkpt lat="43.27408" lon="6.53767">
        <ele>18.772499</ele>
        <time>2011-08-05T12:00:25Z</time>
      </trkpt>
      <trkpt lat="43.27391" lon="6.53824">
        <ele>18.452499</ele>
        <time>2011-08-05T12:00:36Z</time>
      </trkpt>
      <trkpt lat="43.27377" lon="6.53887">
        <ele>18.1875</ele>
        <time>2011-08-05T12:00:48Z</time>
      </trkpt>
      <trkpt lat="43.27377" lon="6.53952">
        <ele>18.482059</ele>
        <time>2011-08-05T12:00:58Z</time>
      </trkpt>
      <trkpt lat="43.27383" lon="6.54013">
        <ele>19</ele>
        <time>2011-08-05T12:01:09Z</time>
      </trkpt>
      <trkpt lat="43.27387" lon="6.54078">
        <ele>19</ele>
        <time>2011-08-05T12:01:20Z</time>
      </trkpt>
      <trkpt lat="43.27393" lon="6.54144">
        <ele>19</ele>
        <time>2011-08-05T12:01:32Z</time>
      </trkpt>
      <trkpt lat="43.27387" lon="6.5421">
        <ele>18.851126</ele>
        <time>2011-08-05T12:01:42Z</time>
      </trkpt>
      <trkpt lat="43.27381" lon="6.54273">
        <ele>18.292894</ele>
        <time>2011-08-05T12:01:52Z</time>
      </trkpt>
      <trkpt lat="43.27372" lon="6.54334">
        <ele>18</ele>
        <time>2011-08-05T12:03:01Z</time>
      </trkpt>
      <trkpt lat="43.27361" lon="6.54401">
        <ele>18</ele>
        <time>2011-08-05T12:03:13Z</time>
      </trkpt>
      <trkpt lat="43.27346" lon="6.54462">
        <ele>17.365</ele>
        <time>2011-08-05T12:03:25Z</time>
      </trkpt>
      <trkpt lat="43.27334" lon="6.54525">
        <ele>17</ele>
        <time>2011-08-05T12:03:37Z</time>
      </trkpt>
      <trkpt lat="43.2732" lon="6.54584">
        <ele>16.697437</ele>
        <time>2011-08-05T12:03:50Z</time>
      </trkpt>
      <trkpt lat="43.27305" lon="6.54643">
        <ele>16.096884</ele>
        <time>2011-08-05T12:04:03Z</time>
      </trkpt>
      <trkpt lat="43.27281" lon="6.54695">
        <ele>15.883675</ele>
        <time>2011-08-05T12:04:15Z</time>
      </trkpt>
      <trkpt lat="43.27257" lon="6.54751">
        <ele>15.16136</ele>
        <time>2011-08-05T12:04:27Z</time>
      </trkpt>
      <trkpt lat="43.27236" lon="6.54805">
        <ele>14.580631</ele>
        <time>2011-08-05T12:04:40Z</time>
      </trkpt>
      <trkpt lat="43.27218" lon="6.54863">
        <ele>14</ele>
        <time>2011-08-05T12:04:52Z</time>
      </trkpt>
      <trkpt lat="43.272" lon="6.54924">
        <ele>13.740125</ele>
        <time>2011-08-05T12:05:04Z</time>
      </trkpt>
      <trkpt lat="43.27182" lon="6.54986">
        <ele>13</ele>
        <time>2011-08-05T12:05:14Z</time>
      </trkpt>
      <trkpt lat="43.27167" lon="6.55048">
        <ele>12.832019</ele>
        <time>2011-08-05T12:05:23Z</time>
      </trkpt>
      <trkpt lat="43.27156" lon="6.5511">
        <ele>12.3375</ele>
        <time>2011-08-05T12:05:32Z</time>
      </trkpt>
      <trkpt lat="43.27144" lon="6.55173">
        <ele>12.1375</ele>
        <time>2011-08-05T12:05:43Z</time>
      </trkpt>
      <trkpt lat="43.27138" lon="6.55238">
        <ele>11.56125</ele>
        <time>2011-08-05T12:05:53Z</time>
      </trkpt>
      <trkpt lat="43.27109" lon="6.55292">
        <ele>10.792296</ele>
        <time>2011-08-05T12:06:03Z</time>
      </trkpt>
      <trkpt lat="43.27086" lon="6.55344">
        <ele>10.005456</ele>
        <time>2011-08-05T12:06:14Z</time>
      </trkpt>
      <trkpt lat="43.27097" lon="6.55408">
        <ele>9.70875</ele>
        <time>2011-08-05T12:06:28Z</time>
      </trkpt>
      <trkpt lat="43.27112" lon="6.5547">
        <ele>9</ele>
        <time>2011-08-05T12:06:41Z</time>
      </trkpt>
      <trkpt lat="43.2714" lon="6.55522">
        <ele>9</ele>
        <time>2011-08-05T12:06:53Z</time>
      </trkpt>
      <trkpt lat="43.27163" lon="6.55583">
        <ele>9</ele>
        <time>2011-08-05T12:07:03Z</time>
      </trkpt>
      <trkpt lat="43.27179" lon="6.55643">
        <ele>9</ele>
        <time>2011-08-05T12:07:13Z</time>
      </trkpt>
      <trkpt lat="43.27191" lon="6.55703">
        <ele>9</ele>
        <time>2011-08-05T12:07:27Z</time>
      </trkpt>
      <trkpt lat="43.2719" lon="6.55722">
        <ele>9</ele>
        <time>2011-08-05T12:11:13Z</time>
      </trkpt>
      <trkpt lat="43.27197" lon="6.55781">
        <ele>9</ele>
        <time>2011-08-05T12:11:28Z</time>
      </trkpt>
      <trkpt lat="43.27204" lon="6.55842">
        <ele>9</ele>
        <time>2011-08-05T12:11:41Z</time>
      </trkpt>
      <trkpt lat="43.2721" lon="6.55907">
        <ele>8.73875</ele>
        <time>2011-08-05T12:11:55Z</time>
      </trkpt>
      <trkpt lat="43.27216" lon="6.5597">
        <ele>8</ele>
        <time>2011-08-05T12:12:07Z</time>
      </trkpt>
      <trkpt lat="43.27225" lon="6.56029">
        <ele>8</ele>
        <time>2011-08-05T12:12:18Z</time>
      </trkpt>
      <trkpt lat="43.27246" lon="6.5609">
        <ele>8</ele>
        <time>2011-08-05T12:12:29Z</time>
      </trkpt>
      <trkpt lat="43.27281" lon="6.56144">
        <ele>8</ele>
        <time>2011-08-05T12:12:41Z</time>
      </trkpt>
      <trkpt lat="43.27311" lon="6.56191">
        <ele>8</ele>
        <time>2011-08-05T12:12:57Z</time>
      </trkpt>
      <trkpt lat="43.27345" lon="6.56236">
        <ele>7.55625</ele>
        <time>2011-08-05T12:13:10Z</time>
      </trkpt>
      <trkpt lat="43.2735" lon="6.563">
        <ele>7</ele>
        <time>2011-08-05T12:13:21Z</time>
      </trkpt>
      <trkpt lat="43.27356" lon="6.56363">
        <ele>7</ele>
        <time>2011-08-05T12:13:32Z</time>
      </trkpt>
      <trkpt lat="43.27387" lon="6.56412">
        <ele>7</ele>
        <time>2011-08-05T12:13:43Z</time>
      </trkpt>
      <trkpt lat="43.27415" lon="6.56462">
        <ele>7</ele>
        <time>2011-08-05T12:13:56Z</time>
      </trkpt>
      <trkpt lat="43.27447" lon="6.56513">
        <ele>7</ele>
        <time>2011-08-05T12:14:10Z</time>
      </trkpt>
      <trkpt lat="43.27479" lon="6.56563">
        <ele>7</ele>
        <time>2011-08-05T12:14:25Z</time>
      </trkpt>
      <trkpt lat="43.27501" lon="6.56615">
        <ele>7</ele>
        <time>2011-08-05T12:14:38Z</time>
      </trkpt>
      <trkpt lat="43.27521" lon="6.5668">
        <ele>6.55</ele>
        <time>2011-08-05T12:14:48Z</time>
      </trkpt>
      <trkpt lat="43.27533" lon="6.56745">
        <ele>6.078</ele>
        <time>2011-08-05T12:14:58Z</time>
      </trkpt>
      <trkpt lat="43.2755" lon="6.56802">
        <ele>6</ele>
        <time>2011-08-05T12:15:10Z</time>
      </trkpt>
      <trkpt lat="43.27565" lon="6.56861">
        <ele>6</ele>
        <time>2011-08-05T12:15:21Z</time>
      </trkpt>
      <trkpt lat="43.27581" lon="6.56921">
        <ele>6</ele>
        <time>2011-08-05T12:15:32Z</time>
      </trkpt>
      <trkpt lat="43.27602" lon="6.56977">
        <ele>6</ele>
        <time>2011-08-05T12:15:44Z</time>
      </trkpt>
      <trkpt lat="43.27635" lon="6.57023">
        <ele>6</ele>
        <time>2011-08-05T12:15:55Z</time>
      </trkpt>
      <trkpt lat="43.27667" lon="6.57069">
        <ele>6</ele>
        <time>2011-08-05T12:16:07Z</time>
      </trkpt>
      <trkpt lat="43.27701" lon="6.57113">
        <ele>5.794934</ele>
        <time>2011-08-05T12:16:20Z</time>
      </trkpt>
      <trkpt lat="43.27733" lon="6.57161">
        <ele>5.947837</ele>
        <time>2011-08-05T12:16:32Z</time>
      </trkpt>
      <trkpt lat="43.2776" lon="6.57214">
        <ele>5.78125</ele>
        <time>2011-08-05T12:16:46Z</time>
      </trkpt>
      <trkpt lat="43.27781" lon="6.5727">
        <ele>6.135</ele>
        <time>2011-08-05T12:17:00Z</time>
      </trkpt>
      <trkpt lat="43.27803" lon="6.57327">
        <ele>6.03875</ele>
        <time>2011-08-05T12:17:14Z</time>
      </trkpt>
      <trkpt lat="43.27825" lon="6.57384">
        <ele>6.292547</ele>
        <time>2011-08-05T12:17:27Z</time>
      </trkpt>
      <trkpt lat="43.27844" lon="6.57444">
        <ele>6.6775</ele>
        <time>2011-08-05T12:17:40Z</time>
      </trkpt>
      <trkpt lat="43.27855" lon="6.57504">
        <ele>6.987034</ele>
        <time>2011-08-05T12:17:58Z</time>
      </trkpt>
      <trkpt lat="43.27865" lon="6.57564">
        <ele>7.690688</ele>
        <time>2011-08-05T12:18:13Z</time>
      </trkpt>
      <trkpt lat="43.2788" lon="6.5762">
        <ele>8</ele>
        <time>2011-08-05T12:18:30Z</time>
      </trkpt>
      <trkpt lat="43.2791" lon="6.57664">
        <ele>8.3325</ele>
        <time>2011-08-05T12:18:49Z</time>
      </trkpt>
      <trkpt lat="43.27942" lon="6.57705">
        <ele>9.031775</ele>
        <time>2011-08-05T12:19:09Z</time>
      </trkpt>
      <trkpt lat="43.27945" lon="6.57757">
        <ele>8.916309</ele>
        <time>2011-08-05T12:20:01Z</time>
      </trkpt>
      <trkpt lat="43.27956" lon="6.57812">
        <ele>8.34935</ele>
        <time>2011-08-05T12:20:18Z</time>
      </trkpt>
      <trkpt lat="43.27984" lon="6.57869">
        <ele>7.969287</ele>
        <time>2011-08-05T12:20:30Z</time>
      </trkpt>
      <trkpt lat="43.28013" lon="6.57921">
        <ele>7.15345</ele>
        <time>2011-08-05T12:20:41Z</time>
      </trkpt>
      <trkpt lat="43.28039" lon="6.57971">
        <ele>7</ele>
        <time>2011-08-05T12:23:01Z</time>
      </trkpt>
      <trkpt lat="43.28057" lon="6.58031">
        <ele>6.265</ele>
        <time>2011-08-05T12:23:16Z</time>
      </trkpt>
      <trkpt lat="43.28072" lon="6.58087">
        <ele>5.568594</ele>
        <time>2011-08-05T12:23:30Z</time>
      </trkpt>
      <trkpt lat="43.2809" lon="6.58149">
        <ele>5.285013</ele>
        <time>2011-08-05T12:23:43Z</time>
      </trkpt>
      <trkpt lat="43.28106" lon="6.58214">
        <ele>5.17</ele>
        <time>2011-08-05T12:23:54Z</time>
      </trkpt>
      <trkpt lat="43.28122" lon="6.58281">
        <ele>5.6</ele>
        <time>2011-08-05T12:24:04Z</time>
      </trkpt>
      <trkpt lat="43.2814" lon="6.58345">
        <ele>5.304772</ele>
        <time>2011-08-05T12:24:14Z</time>
      </trkpt>
      <trkpt lat="43.2816" lon="6.58407">
        <ele>5.55</ele>
        <time>2011-08-05T12:24:24Z</time>
      </trkpt>
      <trkpt lat="43.28188" lon="6.5846">
        <ele>6.2275</ele>
        <time>2011-08-05T12:24:36Z</time>
      </trkpt>
      <trkpt lat="43.28192" lon="6.58522">
        <ele>5.8125</ele>
        <time>2011-08-05T12:24:47Z</time>
      </trkpt>
      <trkpt lat="43.28206" lon="6.58587">
        <ele>5.7325</ele>
        <time>2011-08-05T12:24:58Z</time>
      </trkpt>
      <trkpt lat="43.2819" lon="6.58639">
        <ele>4.681937</ele>
        <time>2011-08-05T12:25:10Z</time>
      </trkpt>
      <trkpt lat="43.28176" lon="6.58703">
        <ele>2.815</ele>
        <time>2011-08-05T12:25:24Z</time>
      </trkpt>
    </trkseg>
  </trk>
</gpx>